Air Quality Table

TIMESTAMP NO2 O3 PM2.5 TEMP HUM AIRPRES WS WD NO
2021-08-02 16:00 6.72 ug/m3 87.66 ug/m3 14.68 ug/m3 37.07 C 22.61 % 999.66 mbar 1.25 m/s 302.91 Deg 1.54 ug/m3
2021-08-02 15:00 5.23 ug/m3 92.32 ug/m3 18.61 ug/m3 36.71 C 23.94 % 999.92 mbar 1.62 m/s 288.13 Deg 0.77 ug/m3
2021-08-02 14:00 4.51 ug/m3 95.28 ug/m3 20.77 ug/m3 36.93 C 25.64 % 1,000.02 mbar 1.81 m/s 288.94 Deg 0.58 ug/m3
2021-08-02 13:00 8.81 ug/m3 99.23 ug/m3 20.14 ug/m3 36.86 C 27.57 % 1,000.18 mbar 1.93 m/s 241.85 Deg 1.1 ug/m3
2021-08-02 12:00 11.83 ug/m3 113.24 ug/m3 22.94 ug/m3 36.41 C 33.82 % 1,000.17 mbar 1.39 m/s 205.15 Deg 1.89 ug/m3
2021-08-02 11:00 9.25 ug/m3 100.78 ug/m3 28.05 ug/m3 36.58 C 25.45 % 1,000.08 mbar 1.55 m/s 224.87 Deg 1.26 ug/m3
2021-08-02 10:00 26.29 ug/m3 91.97 ug/m3 23.05 ug/m3 35.79 C 37.42 % 999.93 mbar 1.41 m/s 197.92 Deg 3.87 ug/m3
2021-08-02 09:00 21.02 ug/m3 80.1 ug/m3 23.15 ug/m3 33.96 C 44.87 % 999.93 mbar 0.88 m/s 262.86 Deg 2.98 ug/m3
2021-08-02 08:00 14.33 ug/m3 73.44 ug/m3 16.51 ug/m3 30.45 C 67 % 999.88 mbar 0.87 m/s 90.47 Deg 1.92 ug/m3
2021-08-02 07:00 15.88 ug/m3 71.38 ug/m3 17.42 ug/m3 28.76 C 73.41 % 999.73 mbar 1.02 m/s 262.22 Deg 0.76 ug/m3
2021-08-02 06:00 36.22 ug/m3 40.78 ug/m3 17.46 ug/m3 28.46 C 46.81 % 999.40 mbar 0.98 m/s 148.15 Deg 2.5 ug/m3
2021-08-02 05:00 22.53 ug/m3 50.39 ug/m3 15.83 ug/m3 28.41 C 40.98 % 999.03 mbar 0.47 m/s 267.32 Deg 0.07 ug/m3
2021-08-02 04:00 11.07 ug/m3 83.94 ug/m3 12.92 ug/m3 29.28 C 43.07 % 998.87 mbar 0.66 m/s 331.05 Deg 0.08 ug/m3
2021-08-02 03:00 5.87 ug/m3 78.25 ug/m3 11.77 ug/m3 28.87 C 47.61 % 998.93 mbar 0.5 m/s 295.43 Deg -0.06 ug/m3
2021-08-02 02:00 4.96 ug/m3 86.99 ug/m3 12.88 ug/m3 28.71 C 55.84 % 999.18 mbar 0.51 m/s 305.77 Deg 0.04 ug/m3
2021-08-02 01:00 7.05 ug/m3 77.84 ug/m3 13.41 ug/m3 28.1 C 67 % 999.29 mbar 0.78 m/s 251.77 Deg 0.09 ug/m3
2021-08-02 00:00 5.42 ug/m3 65.41 ug/m3 13.2 ug/m3 28.57 C 75.75 % 999.49 mbar 0.9 m/s 254.45 Deg 0.08 ug/m3
2021-08-01 23:00 8.88 ug/m3 63.08 ug/m3 16.17 ug/m3 29.23 C 58.53 % 999.67 mbar 1.03 m/s 350.67 Deg 0 ug/m3
2021-08-01 22:00 16.32 ug/m3 57.01 ug/m3 15.15 ug/m3 30.55 C 38.21 % 999.81 mbar 0.97 m/s 356.51 Deg 0.08 ug/m3
2021-08-01 21:00 11.28 ug/m3 65.71 ug/m3 13.32 ug/m3 32.06 C 25.52 % 999.51 mbar 0.52 m/s 331.88 Deg 0.52 ug/m3
2021-08-01 20:00 8.6 ug/m3 72.94 ug/m3 9.89 ug/m3 33.37 C 22.44 % 999.05 mbar 0.68 m/s 349 Deg -0.01 ug/m3
2021-08-01 19:00 4.26 ug/m3 84.15 ug/m3 9.63 ug/m3 35.27 C 16.85 % 998.53 mbar 0.64 m/s 335.94 Deg 0.05 ug/m3
2021-08-01 18:00 2.07 ug/m3 89.79 ug/m3 11.8 ug/m3 36.92 C 15.12 % 998.33 mbar 0.92 m/s 305.01 Deg 0.17 ug/m3
2021-08-01 17:00 1.89 ug/m3 91 ug/m3 12.81 ug/m3 37.1 C 16.67 % 998.21 mbar 1.91 m/s 245.48 Deg 0.15 ug/m3
2021-08-01 16:00 1.81 ug/m3 95.46 ug/m3 13.9 ug/m3 37.53 C 17.29 % 998.27 mbar 2.6 m/s 246.03 Deg 0.2 ug/m3
2021-08-01 15:00 1.49 ug/m3 99.54 ug/m3 15.68 ug/m3 38.74 C 17.59 % 998.29 mbar 1.77 m/s 220.18 Deg 0.15 ug/m3
2021-08-01 14:00 2.26 ug/m3 99.07 ug/m3 15.85 ug/m3 37.91 C 21.81 % 998.53 mbar 2.02 m/s 208.38 Deg 0.24 ug/m3
2021-08-01 13:00 3.05 ug/m3 102.62 ug/m3 15.43 ug/m3 37.64 C 21.25 % 998.77 mbar 1.85 m/s 210.98 Deg 0.21 ug/m3
2021-08-01 12:00 4.78 ug/m3 109.39 ug/m3 18.31 ug/m3 36.8 C 23.62 % 999.07 mbar 1.55 m/s 202.77 Deg 0.43 ug/m3
2021-08-01 11:00 11.41 ug/m3 105.33 ug/m3 20.77 ug/m3 35.83 C 30.6 % 999.14 mbar 1.64 m/s 190.63 Deg 1.48 ug/m3
2021-08-01 10:00 15.46 ug/m3 94.4 ug/m3 17.25 ug/m3 35.31 C 32.55 % 998.97 mbar 2 m/s 158.28 Deg 1.94 ug/m3
2021-08-01 09:00 5.82 ug/m3 92.86 ug/m3 13.81 ug/m3 34.57 C 33.52 % 998.84 mbar 1.27 m/s 143.81 Deg 0.67 ug/m3
2021-08-01 08:00 5.38 ug/m3 82.28 ug/m3 13.37 ug/m3 32.49 C 41.52 % 999.08 mbar 0.97 m/s 249.66 Deg 0.41 ug/m3
2021-08-01 07:00 5.38 ug/m3 77.43 ug/m3 14.66 ug/m3 30.43 C 48.83 % 998.77 mbar 0.85 m/s 338.6 Deg 0.21 ug/m3
2021-08-01 06:00 4.35 ug/m3 76.3 ug/m3 20.92 ug/m3 28.89 C 54.55 % 998.53 mbar 0.98 m/s 319.46 Deg 0.14 ug/m3
2021-08-01 05:00 12.58 ug/m3 56.31 ug/m3 19.88 ug/m3 28.9 C 37.04 % 997.62 mbar 1 m/s 303.8 Deg 0.15 ug/m3
2021-08-01 04:00 13.56 ug/m3 48.83 ug/m3 17.17 ug/m3 28.11 C 36.08 % 997.35 mbar 0.41 m/s 273.15 Deg 0.08 ug/m3
2021-08-01 03:00 16.18 ug/m3 51.76 ug/m3 16.15 ug/m3 28.42 C 39.91 % 997.93 mbar 0.43 m/s 262.68 Deg 0.13 ug/m3
2021-08-01 02:00 4.33 ug/m3 77.74 ug/m3 16.32 ug/m3 28.98 C 48.05 % 998.67 mbar 0.6 m/s 308.23 Deg 0.09 ug/m3
2021-08-01 01:00 7.56 ug/m3 71.22 ug/m3 17.06 ug/m3 29.58 C 49.86 % 999.13 mbar 0.83 m/s 321.95 Deg 0 ug/m3
2021-08-01 00:00 16.53 ug/m3 54.29 ug/m3 16.19 ug/m3 28.92 C 57.3 % 999.34 mbar 0.85 m/s 171.42 Deg 0.03 ug/m3
2021-07-31 23:00 17.55 ug/m3 57.19 ug/m3 14.49 ug/m3 28.84 C 64.26 % 999.16 mbar 0.65 m/s 283.49 Deg 0.12 ug/m3
2021-07-31 22:00 12.81 ug/m3 69.57 ug/m3 13.41 ug/m3 29.36 C 61.17 % 999.05 mbar 0.7 m/s 217.97 Deg 0.05 ug/m3
2021-07-31 21:00 5.52 ug/m3 87.75 ug/m3 14.92 ug/m3 29.71 C 61.56 % 998.80 mbar 0.86 m/s 70.8 Deg 0.02 ug/m3
2021-07-31 20:00 21.14 ug/m3 68.49 ug/m3 16.25 ug/m3 30.49 C 59.07 % 998.11 mbar 1.02 m/s 116.88 Deg 0.21 ug/m3
2021-07-31 19:00 23.12 ug/m3 70.39 ug/m3 17.34 ug/m3 32.44 C 52.42 % 997.50 mbar 1.38 m/s 14.48 Deg 0.69 ug/m3
2021-07-31 18:00 15.55 ug/m3 93.93 ug/m3 17.93 ug/m3 34.19 C 47.21 % 997.13 mbar 1.15 m/s 126.57 Deg 1.01 ug/m3
2021-07-31 17:00 11.92 ug/m3 94.68 ug/m3 17.46 ug/m3 34.68 C 50.57 % 997.25 mbar 1.22 m/s 166.33 Deg 1.15 ug/m3
2021-07-31 16:00 10.15 ug/m3 97.17 ug/m3 17.46 ug/m3 35.26 C 49.26 % 997.52 mbar 1.25 m/s 251.03 Deg 1.13 ug/m3
2021-07-31 15:00 8.25 ug/m3 101.98 ug/m3 17.46 ug/m3 35.32 C 47.39 % 997.76 mbar 1.16 m/s 222.36 Deg 0.9 ug/m3
2021-07-31 14:00 9.71 ug/m3 101.91 ug/m3 18.65 ug/m3 35.2 C 45.18 % 997.94 mbar 1.87 m/s 106.87 Deg 1.15 ug/m3
2021-07-31 13:00 8.21 ug/m3 108.02 ug/m3 14.79 ug/m3 35.8 C 37.33 % 998.13 mbar 1.47 m/s 72.32 Deg 0.9 ug/m3
2021-07-31 12:00 12.68 ug/m3 101.2 ug/m3 15.72 ug/m3 36.35 C 31.63 % 998.21 mbar 2.16 m/s 255.38 Deg 1.76 ug/m3
2021-07-31 11:00 7.71 ug/m3 95.21 ug/m3 16.95 ug/m3 36.98 C 22.27 % 998.28 mbar 1.37 m/s 181.46 Deg 0.99 ug/m3
2021-07-31 10:00 7.06 ug/m3 89.86 ug/m3 21.05 ug/m3 36.08 C 24.25 % 998.71 mbar 1.23 m/s 327.79 Deg 0.97 ug/m3
2021-07-31 09:00 12.74 ug/m3 80.62 ug/m3 25.17 ug/m3 34.36 C 29.18 % 998.94 mbar 1.49 m/s 301.7 Deg 2.15 ug/m3
2021-07-31 08:00 16.77 ug/m3 76.82 ug/m3 22.73 ug/m3 31.42 C 44.96 % 998.85 mbar 1.4 m/s 302.43 Deg 1.84 ug/m3
2021-07-31 07:00 23.38 ug/m3 70.29 ug/m3 16.44 ug/m3 29.33 C 54.16 % 998.44 mbar 1.61 m/s 293.35 Deg 1.38 ug/m3
2021-07-31 06:00 15.68 ug/m3 71.8 ug/m3 12.18 ug/m3 27.44 C 63.52 % 997.99 mbar 0.98 m/s 305.46 Deg 0.57 ug/m3
2021-07-31 05:00 3.15 ug/m3 92.09 ug/m3 11.77 ug/m3 27.38 C 70.67 % 998.03 mbar 0.78 m/s 325.05 Deg 0.04 ug/m3
2021-07-31 04:00 1.8 ug/m3 98.18 ug/m3 11.35 ug/m3 27.69 C 65.92 % 997.89 mbar 1 m/s 319.46 Deg -0.02 ug/m3
2021-07-31 03:00 1.16 ug/m3 101.21 ug/m3 11.1 ug/m3 28.1 C 62.37 % 998.35 mbar 1.63 m/s 312.28 Deg 0.22 ug/m3
2021-07-31 02:00 1.91 ug/m3 93.9 ug/m3 12.09 ug/m3 28.32 C 53.36 % 998.72 mbar 1.07 m/s 310.58 Deg 0.1 ug/m3
2021-07-31 01:00 2.7 ug/m3 89.08 ug/m3 15.23 ug/m3 28.88 C 45.36 % 999.24 mbar 0.82 m/s 245.08 Deg 0 ug/m3
2021-07-31 00:00 5.6 ug/m3 81.49 ug/m3 13.68 ug/m3 29.14 C 41.78 % 999.57 mbar 0.93 m/s 265.37 Deg 0.12 ug/m3
2021-07-30 23:00 8.78 ug/m3 72.26 ug/m3 12.28 ug/m3 29.31 C 39.08 % 999.74 mbar 0.71 m/s 265 Deg 0.07 ug/m3
2021-07-30 22:00 8.22 ug/m3 72.77 ug/m3 12.92 ug/m3 29.46 C 38.44 % 999.59 mbar 0.65 m/s 282.83 Deg 0.12 ug/m3
2021-07-30 21:00 9.86 ug/m3 69.02 ug/m3 13.64 ug/m3 29.61 C 38.91 % 999.60 mbar 0.71 m/s 214.42 Deg -0.04 ug/m3
2021-07-30 20:00 8.31 ug/m3 72.57 ug/m3 13.66 ug/m3 30.7 C 33.84 % 999.25 mbar 1.19 m/s 251.68 Deg 0.05 ug/m3
2021-07-30 19:00 5.49 ug/m3 73.66 ug/m3 12.28 ug/m3 32.01 C 28.41 % 999.11 mbar 1.57 m/s 286.61 Deg 0.19 ug/m3
2021-07-30 18:00 3.29 ug/m3 74.74 ug/m3 14.19 ug/m3 33 C 29.48 % 999.15 mbar 1.71 m/s 301.86 Deg 0.33 ug/m3
2021-07-30 17:00 4.57 ug/m3 73.37 ug/m3 14.79 ug/m3 34.26 C 24.78 % 999.42 mbar 1.79 m/s 296.63 Deg 0.69 ug/m3
2021-07-30 16:00 4.72 ug/m3 75.16 ug/m3 15.74 ug/m3 34.96 C 23 % 999.85 mbar 2.16 m/s 296.07 Deg 0.93 ug/m3
2021-07-30 15:00 3.41 ug/m3 81.01 ug/m3 17.36 ug/m3 35.16 C 22.4 % 1,000.25 mbar 2.15 m/s 290.98 Deg 0.43 ug/m3
2021-07-30 14:00 6.87 ug/m3 79.22 ug/m3 15.49 ug/m3 35.15 C 22.92 % 1,000.64 mbar 2.27 m/s 297.35 Deg 1.64 ug/m3
2021-07-30 13:00 4.83 ug/m3 83.06 ug/m3 15.81 ug/m3 34.8 C 25.95 % 1,000.95 mbar 1.8 m/s 308.6 Deg 0.95 ug/m3
2021-07-30 12:00 5.08 ug/m3 86.2 ug/m3 15.6 ug/m3 35.09 C 23.37 % 1,001.27 mbar 1.81 m/s 309.76 Deg 0.7 ug/m3
2021-07-30 11:00 4.93 ug/m3 85.83 ug/m3 16.1 ug/m3 35.71 C 18.69 % 1,001.44 mbar 1.67 m/s 306.49 Deg 0.68 ug/m3
2021-07-30 10:00 5.33 ug/m3 87.56 ug/m3 16.91 ug/m3 35.34 C 18.16 % 1,001.74 mbar 1.52 m/s 310.85 Deg 0.63 ug/m3
2021-07-30 09:00 11.45 ug/m3 81.39 ug/m3 16.78 ug/m3 34.72 C 19.48 % 1,001.53 mbar 1.24 m/s 305.87 Deg 1.78 ug/m3
2021-07-30 08:00 20.9 ug/m3 76.96 ug/m3 16.42 ug/m3 32.68 C 24.69 % 1,001.39 mbar 0.98 m/s 92.64 Deg 2.43 ug/m3
2021-07-30 07:00 28.72 ug/m3 67.63 ug/m3 14.81 ug/m3 29.61 C 33.67 % 1,001.11 mbar 0.52 m/s 92.16 Deg 2.02 ug/m3
2021-07-30 06:00 23.23 ug/m3 72.37 ug/m3 10.61 ug/m3 27.45 C 34.44 % 1,000.90 mbar 0.68 m/s 177.69 Deg 0.49 ug/m3
2021-07-30 05:00 3.39 ug/m3 95.4 ug/m3 10.46 ug/m3 27.81 C 32.92 % 1,000.71 mbar 0.71 m/s 342.26 Deg 0.06 ug/m3
2021-07-30 04:00 3.38 ug/m3 88.32 ug/m3 10.44 ug/m3 27.52 C 32.2 % 1,000.70 mbar 0.53 m/s 324.9 Deg 0.05 ug/m3
2021-07-30 03:00 3.02 ug/m3 71.42 ug/m3 10.69 ug/m3 27.18 C 33.67 % 1,001.01 mbar 0.3 m/s 306.38 Deg 0.07 ug/m3
2021-07-30 02:00 5.38 ug/m3 78.33 ug/m3 11.77 ug/m3 27.75 C 31.67 % 1,001.35 mbar 0.29 m/s 303.6 Deg 0.05 ug/m3
2021-07-30 01:00 18.54 ug/m3 57.23 ug/m3 11.9 ug/m3 27.86 C 30.78 % 1,001.59 mbar 0.25 m/s 193.52 Deg 0.1 ug/m3
2021-07-30 00:00 14.85 ug/m3 72.18 ug/m3 10.18 ug/m3 28.87 C 27.43 % 1,001.70 mbar 0.3 m/s 238.69 Deg 0.13 ug/m3
2021-07-29 23:00 5.15 ug/m3 93.78 ug/m3 8.87 ug/m3 29.56 C 24.98 % 1,001.87 mbar 0.46 m/s 321.55 Deg 0.04 ug/m3
2021-07-29 22:00 2.26 ug/m3 104 ug/m3 10.78 ug/m3 29.72 C 24.53 % 1,001.78 mbar 0.58 m/s 249.16 Deg 0.08 ug/m3
2021-07-29 21:00 2.87 ug/m3 105.16 ug/m3 10.99 ug/m3 30.29 C 24.85 % 1,001.63 mbar 0.69 m/s 321.93 Deg 0.07 ug/m3
2021-07-29 20:00 3.78 ug/m3 106.33 ug/m3 9.74 ug/m3 30.78 C 25.99 % 1,001.23 mbar 1.28 m/s 343.79 Deg 0.08 ug/m3
2021-07-29 19:00 6.39 ug/m3 100.95 ug/m3 10.01 ug/m3 31.7 C 27.84 % 1,000.88 mbar 1.49 m/s 260.08 Deg 0.13 ug/m3
2021-07-29 18:00 3.84 ug/m3 104.08 ug/m3 9.59 ug/m3 32.87 C 27.31 % 1,000.73 mbar 1.19 m/s 342.65 Deg 0.25 ug/m3
2021-07-29 17:00 3.08 ug/m3 103.73 ug/m3 10.39 ug/m3 33.44 C 27.68 % 1,000.84 mbar 1.85 m/s 341.5 Deg 0.29 ug/m3
2021-07-29 16:00 2.95 ug/m3 104.43 ug/m3 12.33 ug/m3 34.22 C 27.59 % 1,001.20 mbar 1.46 m/s 321.13 Deg 0.28 ug/m3
2021-07-29 15:00 4.02 ug/m3 103.91 ug/m3 11.33 ug/m3 34.42 C 26.86 % 1,001.42 mbar 1.73 m/s 335.15 Deg 0.37 ug/m3
2021-07-29 14:00 4.27 ug/m3 104.67 ug/m3 11.27 ug/m3 34.36 C 26.77 % 1,001.72 mbar 1.94 m/s 338.24 Deg 0.91 ug/m3
2021-07-29 13:00 4.65 ug/m3 109.44 ug/m3 11.86 ug/m3 34.26 C 27.06 % 1,002.10 mbar 1.95 m/s 343.19 Deg 0.67 ug/m3
2021-07-29 12:00 3.96 ug/m3 109.4 ug/m3 12.84 ug/m3 34.13 C 29.33 % 1,002.42 mbar 1.7 m/s 336.6 Deg 0.53 ug/m3
2021-07-29 11:00 9.58 ug/m3 103.42 ug/m3 11.9 ug/m3 33.43 C 33.92 % 1,002.45 mbar 2.1 m/s 104.34 Deg 1.22 ug/m3
2021-07-29 10:00 13.58 ug/m3 101.58 ug/m3 13.15 ug/m3 33.01 C 27.77 % 1,002.46 mbar 2.4 m/s 103.72 Deg 2.79 ug/m3
2021-07-29 09:00 11.46 ug/m3 96.52 ug/m3 17.84 ug/m3 32.88 C 27.16 % 1,002.19 mbar 1.3 m/s 173.38 Deg 1.07 ug/m3
2021-07-29 08:00 19.65 ug/m3 85.32 ug/m3 15.66 ug/m3 31.75 C 24.47 % 1,002.02 mbar 1.3 m/s 93.6 Deg 1.92 ug/m3
2021-07-29 07:00 27.76 ug/m3 74.15 ug/m3 15.68 ug/m3 29.67 C 27.83 % 1,001.65 mbar 1.25 m/s 348.55 Deg 1.45 ug/m3
2021-07-29 06:00 27.3 ug/m3 70.69 ug/m3 11.24 ug/m3 27.96 C 31.68 % 1,001.53 mbar 0.87 m/s 258.76 Deg 0.47 ug/m3
2021-07-29 05:00 13.9 ug/m3 85.94 ug/m3 9.95 ug/m3 27.96 C 26.69 % 1,001.27 mbar 1 m/s 352 Deg 0.09 ug/m3
2021-07-29 04:00 14.72 ug/m3 81.95 ug/m3 11.14 ug/m3 28.01 C 27.97 % 1,001.16 mbar 0.61 m/s 335.62 Deg -0.13 ug/m3
2021-07-29 03:00 8.1 ug/m3 87.46 ug/m3 10.16 ug/m3 28.11 C 32.11 % 1,001.35 mbar 0.43 m/s 324.62 Deg 0.07 ug/m3
2021-07-29 02:00 3.84 ug/m3 96.68 ug/m3 10.67 ug/m3 28.54 C 31.83 % 1,001.55 mbar 0.86 m/s 341.95 Deg 0.1 ug/m3
2021-07-29 01:00 8.25 ug/m3 89.02 ug/m3 13.28 ug/m3 27.99 C 36.34 % 1,001.93 mbar 0.62 m/s 330.76 Deg 0.08 ug/m3
2021-07-29 00:00 19.29 ug/m3 71.54 ug/m3 13.22 ug/m3 27.5 C 41.23 % 1,002.31 mbar 0.64 m/s 246.79 Deg 0.17 ug/m3
2021-07-28 23:00 9.66 ug/m3 80.5 ug/m3 10.65 ug/m3 27.23 C 47.65 % 1,002.39 mbar 0.59 m/s 323.89 Deg 0.05 ug/m3
2021-07-28 22:00 8.78 ug/m3 85.17 ug/m3 9.69 ug/m3 27.36 C 55.08 % 1,002.62 mbar 0.81 m/s 262.08 Deg 0.06 ug/m3
2021-07-28 21:00 7.5 ug/m3 92.36 ug/m3 10.9 ug/m3 27.87 C 53.51 % 1,002.64 mbar 0.87 m/s 347.96 Deg 0.11 ug/m3
2021-07-28 20:00 12.13 ug/m3 95.33 ug/m3 11.46 ug/m3 28.63 C 50.45 % 1,002.37 mbar 1.46 m/s 8.48 Deg 0.19 ug/m3
2021-07-28 19:00 12.39 ug/m3 98.35 ug/m3 12.64 ug/m3 30.14 C 46.02 % 1,002.18 mbar 1.78 m/s 12.43 Deg 0.26 ug/m3
2021-07-28 18:00 6.26 ug/m3 104.59 ug/m3 10.73 ug/m3 32.55 C 33.03 % 1,001.83 mbar 1.3 m/s 250.54 Deg 0.43 ug/m3
2021-07-28 17:00 4.44 ug/m3 112.47 ug/m3 10.9 ug/m3 33.64 C 28.68 % 1,001.81 mbar 1.54 m/s 328.89 Deg 0.42 ug/m3
2021-07-28 16:00 7.76 ug/m3 113.02 ug/m3 11.84 ug/m3 33.41 C 31.5 % 1,002.08 mbar 2.08 m/s 103.28 Deg 0.76 ug/m3
2021-07-28 15:00 8.39 ug/m3 109.74 ug/m3 11.33 ug/m3 33.29 C 29.31 % 1,002.39 mbar 2.78 m/s 30.22 Deg 0.95 ug/m3
2021-07-28 14:00 8.17 ug/m3 110.83 ug/m3 12.18 ug/m3 33.31 C 27.73 % 1,002.70 mbar 2.58 m/s 26.32 Deg 0.99 ug/m3
2021-07-28 13:00 6.73 ug/m3 116.73 ug/m3 10.99 ug/m3 33.51 C 25.06 % 1,002.83 mbar 2.62 m/s 21.88 Deg 0.83 ug/m3
2021-07-28 12:00 5.54 ug/m3 116.71 ug/m3 9.55 ug/m3 33.17 C 22.62 % 1,003.01 mbar 2.38 m/s 28.67 Deg 0.62 ug/m3
2021-07-28 11:00 5.83 ug/m3 114.1 ug/m3 9.04 ug/m3 32.59 C 21.39 % 1,003.15 mbar 2.31 m/s 22.93 Deg 0.63 ug/m3
2021-07-28 10:00 7.63 ug/m3 112.38 ug/m3 11.5 ug/m3 31.95 C 21.93 % 1,003.22 mbar 2.01 m/s 21.15 Deg 0.77 ug/m3
2021-07-28 09:00 8.73 ug/m3 107.61 ug/m3 13.03 ug/m3 30.49 C 25.44 % 1,003.07 mbar 2.5 m/s 17.05 Deg 0.77 ug/m3
2021-07-28 08:00 24.66 ug/m3 86.44 ug/m3 17.95 ug/m3 29.67 C 28.34 % 1,003.16 mbar 1.86 m/s 12.48 Deg 2.7 ug/m3
2021-07-28 07:00 32.71 ug/m3 72.41 ug/m3 12.01 ug/m3 28.19 C 31.52 % 1,003.04 mbar 0.78 m/s 179.37 Deg 1.92 ug/m3
2021-07-28 06:00 19.87 ug/m3 81.59 ug/m3 8.27 ug/m3 26.1 C 38.9 % 1,002.90 mbar 0.52 m/s 238.68 Deg 0.37 ug/m3
2021-07-28 05:00 8.89 ug/m3 91.99 ug/m3 7.08 ug/m3 25.56 C 50.5 % 1,002.76 mbar 0.86 m/s 332.58 Deg 0.03 ug/m3
2021-07-28 04:00 5.07 ug/m3 99.5 ug/m3 6.91 ug/m3 25.9 C 47.27 % 1,002.68 mbar 1.17 m/s 343.13 Deg 0.1 ug/m3
2021-07-28 03:00 6.68 ug/m3 96.89 ug/m3 6.15 ug/m3 26.12 C 41.95 % 1,002.89 mbar 1.08 m/s 342.68 Deg 0.09 ug/m3
2021-07-28 02:00 4.47 ug/m3 101.28 ug/m3 7.87 ug/m3 26.38 C 31.79 % 1,003.19 mbar 0.82 m/s 334.37 Deg -0.01 ug/m3
2021-07-28 01:00 20.96 ug/m3 73.47 ug/m3 11.2 ug/m3 26.39 C 30.18 % 1,003.50 mbar 0.43 m/s 290.65 Deg 0.14 ug/m3
2021-07-28 00:00 24.23 ug/m3 54.25 ug/m3 9.23 ug/m3 26.41 C 41.07 % 1,003.92 mbar 0.45 m/s 287.65 Deg 0.08 ug/m3
2021-07-27 23:00 12.87 ug/m3 81.32 ug/m3 12.54 ug/m3 27.47 C 38.96 % 1,004.12 mbar 0.41 m/s 239.71 Deg 0.1 ug/m3
2021-07-27 22:00 18.87 ug/m3 67.89 ug/m3 11.6 ug/m3 27.34 C 58.22 % 1,004.24 mbar 0.48 m/s 299.69 Deg 0.23 ug/m3
2021-07-27 21:00 12.88 ug/m3 73.83 ug/m3 9.86 ug/m3 27.73 C 62.07 % 1,004.13 mbar 0.61 m/s 222.59 Deg 0.15 ug/m3
2021-07-27 20:00 11.68 ug/m3 88.26 ug/m3 9.48 ug/m3 29.16 C 51.76 % 1,003.75 mbar 0.82 m/s 228.86 Deg 0.05 ug/m3
2021-07-27 19:00 8.45 ug/m3 111.07 ug/m3 10.16 ug/m3 30.15 C 39.56 % 1,003.63 mbar 0.9 m/s 168.7 Deg 0.17 ug/m3
2021-07-27 18:00 5.67 ug/m3 113.51 ug/m3 12.18 ug/m3 30.08 C 50.92 % 1,003.59 mbar 1.45 m/s 113.83 Deg 0.28 ug/m3
2021-07-27 17:00 6.04 ug/m3 110.85 ug/m3 12.58 ug/m3 30.65 C 51.22 % 1,003.76 mbar 1.76 m/s 20.26 Deg 0.47 ug/m3
2021-07-27 16:00 6.03 ug/m3 105.57 ug/m3 13.15 ug/m3 30.73 C 54.6 % 1,004.07 mbar 1.75 m/s 194.53 Deg 0.73 ug/m3
2021-07-27 15:00 4.72 ug/m3 108.18 ug/m3 10.63 ug/m3 31.22 C 48.61 % 1,004.30 mbar 1.89 m/s 14.45 Deg 0.55 ug/m3
2021-07-27 14:00 3.66 ug/m3 111.79 ug/m3 11.18 ug/m3 31.16 C 49.04 % 1,004.67 mbar 1.78 m/s 185.88 Deg 0.45 ug/m3
2021-07-27 13:00 4.88 ug/m3 110.89 ug/m3 15.04 ug/m3 30.48 C 53.53 % 1,005.18 mbar 1.99 m/s 178.97 Deg 0.67 ug/m3
2021-07-27 12:00 8.54 ug/m3 114.33 ug/m3 7.95 ug/m3 30.65 C 56.57 % 1,005.25 mbar 1.95 m/s 104.57 Deg 0.98 ug/m3
2021-07-27 11:00 8.31 ug/m3 109.34 ug/m3 7.44 ug/m3 31.95 C 38.12 % 1,005.26 mbar 1.22 m/s 305.01 Deg 1.01 ug/m3
2021-07-27 10:00 5.9 ug/m3 104.76 ug/m3 9.84 ug/m3 30.91 C 36.1 % 1,005.30 mbar 1.56 m/s 229.67 Deg 0.92 ug/m3
2021-07-27 09:00 6.19 ug/m3 99.52 ug/m3 15.23 ug/m3 28.76 C 57.21 % 1,005.28 mbar 1.73 m/s 221.7 Deg 0.91 ug/m3
2021-07-27 08:00 25.78 ug/m3 72.85 ug/m3 20.09 ug/m3 26.98 C 77.08 % 1,005.16 mbar 1.35 m/s 189.44 Deg 3.92 ug/m3
2021-07-27 07:00 46.56 ug/m3 30.48 ug/m3 17.99 ug/m3 25.64 C 90.88 % 1,004.93 mbar 0.51 m/s 204.67 Deg 9.16 ug/m3
2021-07-27 06:00 15.03 ug/m3 45.74 ug/m3 12.67 ug/m3 24.39 C 93.61 % 1,004.74 mbar 0.34 m/s 269.15 Deg 0.49 ug/m3
2021-07-27 05:00 8.04 ug/m3 51.36 ug/m3 10.48 ug/m3 24.33 C 92.37 % 1,004.31 mbar 0.29 m/s 283.52 Deg 0.03 ug/m3
2021-07-27 04:00 4.34 ug/m3 64.6 ug/m3 9.4 ug/m3 24.65 C 91.91 % 1,004.01 mbar 0.42 m/s 210.76 Deg 0.13 ug/m3
2021-07-27 03:00 1.51 ug/m3 76.39 ug/m3 8.44 ug/m3 25.16 C 90.87 % 1,004.02 mbar 0.74 m/s 174.27 Deg 0.13 ug/m3
2021-07-27 02:00 0.7 ug/m3 79.92 ug/m3 7.34 ug/m3 25.39 C 88.02 % 1,004.09 mbar 0.95 m/s 169.84 Deg -0.02 ug/m3
2021-07-27 01:00 0.93 ug/m3 83.29 ug/m3 8.42 ug/m3 25.5 C 86.17 % 1,004.28 mbar 1.29 m/s 178.43 Deg -0.03 ug/m3
2021-07-27 00:00 3.22 ug/m3 80.86 ug/m3 8.19 ug/m3 25.73 C 82.76 % 1,004.33 mbar 1.68 m/s 168.43 Deg 0.03 ug/m3
2021-07-26 23:00 2.57 ug/m3 76.33 ug/m3 9.72 ug/m3 25.85 C 82.82 % 1,004.21 mbar 1.62 m/s 175.06 Deg 0.16 ug/m3
2021-07-26 22:00 2.18 ug/m3 76.63 ug/m3 13.11 ug/m3 26.06 C 84.5 % 1,004.01 mbar 2.47 m/s 169.9 Deg 0.02 ug/m3
2021-07-26 21:00 4.05 ug/m3 75.57 ug/m3 9.04 ug/m3 26.42 C 82.12 % 1,003.81 mbar 2.37 m/s 169.75 Deg 0.21 ug/m3
2021-07-26 20:00 4.19 ug/m3 77.62 ug/m3 6.83 ug/m3 27.05 C 74.26 % 1,003.21 mbar 2.63 m/s 173.03 Deg 0.23 ug/m3
2021-07-26 19:00 3.64 ug/m3 80.52 ug/m3 9.21 ug/m3 27.8 C 64.51 % 1,002.86 mbar 2.52 m/s 178.07 Deg 0.28 ug/m3
2021-07-26 18:00 5.2 ug/m3 82.04 ug/m3 8.95 ug/m3 28.6 C 61.46 % 1,002.66 mbar 2.91 m/s 184.15 Deg 0.8 ug/m3
2021-07-26 17:00 6.45 ug/m3 87 ug/m3 14.72 ug/m3 29.75 C 51.5 % 1,002.71 mbar 2.81 m/s 185.35 Deg 1.15 ug/m3
2021-07-26 16:00 7.9 ug/m3 88.06 ug/m3 11.75 ug/m3 30.61 C 46.7 % 1,002.94 mbar 2.78 m/s 186.45 Deg 1.59 ug/m3
2021-07-26 15:00 7.4 ug/m3 92.93 ug/m3 9.12 ug/m3 31.64 C 36.86 % 1,003.22 mbar 2.32 m/s 194.14 Deg 1.47 ug/m3
2021-07-26 14:00 5.08 ug/m3 94.9 ug/m3 4.62 ug/m3 31.94 C 29.27 % 1,003.44 mbar 2.17 m/s 217.3 Deg 1.13 ug/m3
2021-07-26 13:00 4.33 ug/m3 93.64 ug/m3 9.04 ug/m3 31.39 C 33.29 % 1,003.59 mbar 2.28 m/s 211.58 Deg 0.84 ug/m3
2021-07-26 12:00 4.27 ug/m3 93.01 ug/m3 11.41 ug/m3 30.94 C 39.55 % 1,003.68 mbar 2.09 m/s 216.05 Deg 0.88 ug/m3
2021-07-26 11:00 5.06 ug/m3 93.96 ug/m3 12.26 ug/m3 30.11 C 44.13 % 1,003.87 mbar 2.1 m/s 207.77 Deg 1.11 ug/m3
2021-07-26 10:00 8.83 ug/m3 88.36 ug/m3 11.5 ug/m3 29.28 C 51.46 % 1,003.63 mbar 2.64 m/s 190.28 Deg 1.83 ug/m3
2021-07-26 09:00 10.11 ug/m3 83.72 ug/m3 12.35 ug/m3 28.86 C 53.19 % 1,003.36 mbar 2.18 m/s 201.68 Deg 2.15 ug/m3
2021-07-26 08:00 16.48 ug/m3 75.7 ug/m3 15.23 ug/m3 27.31 C 66.47 % 1,003.16 mbar 2.47 m/s 194.03 Deg 2.63 ug/m3
2021-07-26 07:00 54.63 ug/m3 24.7 ug/m3 12.43 ug/m3 25.7 C 84.78 % 1,002.85 mbar 1.5 m/s 173.72 Deg 22.94 ug/m3
2021-07-26 06:00 40.67 ug/m3 23.83 ug/m3 10.82 ug/m3 24.57 C 88.9 % 1,002.45 mbar 0.94 m/s 190.48 Deg 5.8 ug/m3
2021-07-26 05:00 18.75 ug/m3 42.3 ug/m3 7.51 ug/m3 24.48 C 85.97 % 1,001.94 mbar 0.74 m/s 188.46 Deg 0.42 ug/m3
2021-07-26 04:00 10.67 ug/m3 55.89 ug/m3 6.07 ug/m3 24.81 C 81.92 % 1,001.58 mbar 0.54 m/s 221.38 Deg 0.05 ug/m3
2021-07-26 03:00 4.45 ug/m3 69.05 ug/m3 7.68 ug/m3 25.11 C 77.46 % 1,001.48 mbar 0.69 m/s 182.9 Deg -0.07 ug/m3
2021-07-26 02:00 2.93 ug/m3 69.58 ug/m3 7.08 ug/m3 25.02 C 73.42 % 1,001.44 mbar 0.72 m/s 218.11 Deg 0.01 ug/m3
2021-07-26 01:00 4.47 ug/m3 66.44 ug/m3 6.15 ug/m3 25.33 C 73.67 % 1,001.75 mbar 0.57 m/s 213.69 Deg -0.01 ug/m3
2021-07-26 00:00 7.98 ug/m3 60.94 ug/m3 19.65 ug/m3 25.7 C 73.55 % 1,002.18 mbar 0.81 m/s 225.64 Deg 0.08 ug/m3
2021-07-25 23:00 9.07 ug/m3 64.41 ug/m3 24.4 ug/m3 26.22 C 70.66 % 1,002.31 mbar 1.02 m/s 199.22 Deg 0.13 ug/m3
2021-07-25 22:00 6.72 ug/m3 68.88 ug/m3 20.16 ug/m3 26.44 C 69.68 % 1,002.14 mbar 1.31 m/s 193.7 Deg 0.09 ug/m3
2021-07-25 21:00 5.94 ug/m3 71.11 ug/m3 25.59 ug/m3 26.84 C 66.8 % 1,001.71 mbar 0.93 m/s 203.65 Deg 0.02 ug/m3
2021-07-25 20:00 5.83 ug/m3 74.84 ug/m3 22.88 ug/m3 27.39 C 60.68 % 1,001.26 mbar 1.15 m/s 210.17 Deg 0.08 ug/m3
2021-07-25 19:00 9.21 ug/m3 76.75 ug/m3 7.59 ug/m3 28.94 C 48.02 % 1,001.05 mbar 1.93 m/s 209 Deg 0.46 ug/m3
2021-07-25 18:00 10.9 ug/m3 93.73 ug/m3 7 ug/m3 30.78 C 39.73 % 1,001.16 mbar 1.43 m/s 187.67 Deg 0.58 ug/m3
2021-07-25 17:00 5.26 ug/m3 108.56 ug/m3 7.51 ug/m3 31.22 C 40.6 % 1,001.41 mbar 1.55 m/s 237.8 Deg 0.45 ug/m3
2021-07-25 16:00 4.27 ug/m3 112.49 ug/m3 -0.39 ug/m3 31.81 C 37.9 % 1,001.54 mbar 1.84 m/s 263.98 Deg 0.44 ug/m3
2021-07-25 15:00 1.72 ug/m3 109.15 ug/m3 6.23 ug/m3 32.72 C 31.22 % 1,001.69 mbar 1.5 m/s 218.23 Deg 0.27 ug/m3
2021-07-25 14:00 2.93 ug/m3 113.93 ug/m3 9.46 ug/m3 32.29 C 30.53 % 1,002.01 mbar 1.67 m/s 216.54 Deg 0.26 ug/m3
2021-07-25 13:00 3.1 ug/m3 112.16 ug/m3 5.56 ug/m3 32.38 C 27.91 % 1,002.15 mbar 1.88 m/s 142.4 Deg 0.2 ug/m3
2021-07-25 12:00 1.06 ug/m3 103.35 ug/m3 2.5 ug/m3 32.4 C 22.71 % 1,002.23 mbar 1.64 m/s 249.02 Deg 0.06 ug/m3
2021-07-25 11:00 1.81 ug/m3 100.7 ug/m3 8.02 ug/m3 31.81 C 27.87 % 1,002.47 mbar 1.64 m/s 251.4 Deg 0.44 ug/m3
2021-07-25 10:00 1.76 ug/m3 106.17 ug/m3 7.51 ug/m3 32.12 C 22.1 % 1,002.10 mbar 1.3 m/s 278.22 Deg 0.21 ug/m3
2021-07-25 09:00 4.29 ug/m3 105.59 ug/m3 15.57 ug/m3 31.61 C 23.32 % 1,001.78 mbar 0.82 m/s 275.25 Deg 0.41 ug/m3
2021-07-25 08:00 11.68 ug/m3 86.88 ug/m3 13.54 ug/m3 29.81 C 30.15 % 1,001.88 mbar 0.52 m/s 238.85 Deg 1.18 ug/m3
2021-07-25 07:00 28.14 ug/m3 50.62 ug/m3 8.87 ug/m3 26.2 C 42.84 % 1,001.69 mbar 0.4 m/s 256.08 Deg 3.36 ug/m3
2021-07-25 06:00 15.38 ug/m3 53.48 ug/m3 7.34 ug/m3 23.57 C 53.35 % 1,001.53 mbar 0.34 m/s 205 Deg 0.53 ug/m3
2021-07-25 05:00 8.5 ug/m3 55.17 ug/m3 8.53 ug/m3 23.66 C 57.66 % 1,001.12 mbar 0.36 m/s 270.28 Deg 0.1 ug/m3
2021-07-25 04:00 4.94 ug/m3 60.56 ug/m3 12.35 ug/m3 23.94 C 61.52 % 1,000.92 mbar 0.27 m/s 186.2 Deg 0.04 ug/m3
2021-07-25 03:00 8.76 ug/m3 57.95 ug/m3 20.41 ug/m3 24.31 C 56.31 % 1,001.02 mbar 0.29 m/s 253.52 Deg -0.07 ug/m3
2021-07-25 02:00 14.12 ug/m3 55.63 ug/m3 20.07 ug/m3 24.45 C 49.11 % 1,001.16 mbar 0.29 m/s 200.24 Deg 0.11 ug/m3
2021-07-25 01:00 15.84 ug/m3 66.22 ug/m3 8.53 ug/m3 24.79 C 47.72 % 1,001.53 mbar 0.42 m/s 235.59 Deg 0.03 ug/m3
2021-07-25 00:00 11.24 ug/m3 73.42 ug/m3 7.59 ug/m3 25.67 C 46.16 % 1,002.01 mbar 0.5 m/s 282.63 Deg 0.2 ug/m3
2021-07-24 23:00 3.73 ug/m3 86.37 ug/m3 8.36 ug/m3 25.88 C 50.48 % 1,002.30 mbar 0.44 m/s 294.82 Deg 0.05 ug/m3
2021-07-24 22:00 2.32 ug/m3 92.58 ug/m3 8.19 ug/m3 26.21 C 55.06 % 1,002.47 mbar 0.73 m/s 312.11 Deg 0.11 ug/m3
2021-07-24 21:00 3.38 ug/m3 94.36 ug/m3 7.93 ug/m3 26.97 C 45.92 % 1,002.15 mbar 0.58 m/s 318.21 Deg 0.03 ug/m3
2021-07-24 20:00 3.42 ug/m3 93.02 ug/m3 7.42 ug/m3 27.84 C 37.94 % 1,001.72 mbar 0.81 m/s 319.16 Deg 0.08 ug/m3
2021-07-24 19:00 2.34 ug/m3 94.98 ug/m3 9.21 ug/m3 29.49 C 32.04 % 1,001.38 mbar 1.14 m/s 327.62 Deg 0.16 ug/m3
2021-07-24 18:00 1.36 ug/m3 95.73 ug/m3 8.36 ug/m3 30.93 C 31.07 % 1,001.05 mbar 1.44 m/s 243.05 Deg 0.08 ug/m3
2021-07-24 17:00 0.81 ug/m3 96.57 ug/m3 7.76 ug/m3 31.63 C 29.49 % 1,001.10 mbar 1.52 m/s 340.84 Deg 0.15 ug/m3
2021-07-24 16:00 0.68 ug/m3 97.56 ug/m3 5.81 ug/m3 31.64 C 29.68 % 1,001.22 mbar 1.89 m/s 340.03 Deg 0.09 ug/m3
2021-07-24 15:00 0.82 ug/m3 100.75 ug/m3 8.44 ug/m3 32.3 C 27.18 % 1,001.30 mbar 1.84 m/s 344.9 Deg 0.12 ug/m3
2021-07-24 14:00 1.85 ug/m3 100.94 ug/m3 7.59 ug/m3 32.74 C 30.9 % 1,001.51 mbar 1.29 m/s 321.47 Deg 0.24 ug/m3
2021-07-24 13:00 3.62 ug/m3 96.16 ug/m3 6.74 ug/m3 33.23 C 27.86 % 1,001.87 mbar 1.64 m/s 332.02 Deg 1.23 ug/m3
2021-07-24 12:00 2.73 ug/m3 98.25 ug/m3 8.27 ug/m3 32.98 C 27.36 % 1,002.08 mbar 1.48 m/s 342.67 Deg 0.54 ug/m3
2021-07-24 11:00 5.55 ug/m3 99 ug/m3 10.73 ug/m3 32.12 C 34.71 % 1,002.15 mbar 1.62 m/s 255.85 Deg 0.73 ug/m3
2021-07-24 10:00 8.91 ug/m3 92.49 ug/m3 9.97 ug/m3 30.32 C 48.45 % 1,001.99 mbar 2.05 m/s 15.95 Deg 1.44 ug/m3
2021-07-24 09:00 5.48 ug/m3 93.55 ug/m3 12.18 ug/m3 29.93 C 46.28 % 1,001.78 mbar 1.3 m/s 345.54 Deg 0.84 ug/m3
2021-07-24 08:00 6.49 ug/m3 91.51 ug/m3 7.25 ug/m3 27.7 C 60.84 % 1,001.75 mbar 1.37 m/s 353.63 Deg 0.92 ug/m3
2021-07-24 07:00 8.29 ug/m3 88.59 ug/m3 6.83 ug/m3 25.93 C 74.56 % 1,001.50 mbar 1.53 m/s 342.12 Deg 0.5 ug/m3
2021-07-24 06:00 7.82 ug/m3 91 ug/m3 6.57 ug/m3 25.11 C 69.98 % 1,001.36 mbar 1.05 m/s 301.27 Deg -0.03 ug/m3
2021-07-24 05:00 5.56 ug/m3 89.31 ug/m3 4.88 ug/m3 24.93 C 64.53 % 1,001.27 mbar 0.61 m/s 252.56 Deg -0.07 ug/m3
2021-07-24 04:00 1.51 ug/m3 98.56 ug/m3 6.91 ug/m3 25.09 C 57.84 % 1,001.37 mbar 1.01 m/s 297.93 Deg 0.05 ug/m3
2021-07-24 03:00 4.84 ug/m3 89.56 ug/m3 6.66 ug/m3 24.7 C 55.5 % 1,001.73 mbar 0.65 m/s 329.33 Deg 0.04 ug/m3
2021-07-24 02:00 11.23 ug/m3 72.31 ug/m3 8.87 ug/m3 24.61 C 60.16 % 1,002.05 mbar 0.49 m/s 256.93 Deg 0.09 ug/m3
2021-07-24 01:00 7.21 ug/m3 81.63 ug/m3 13.28 ug/m3 25.29 C 55.41 % 1,002.34 mbar 0.74 m/s 317.62 Deg -0.01 ug/m3
2021-07-24 00:00 24.55 ug/m3 51 ug/m3 12.6 ug/m3 25.22 C 54.65 % 1,002.53 mbar 0.55 m/s 278.45 Deg 0.07 ug/m3
2021-07-23 23:00 24.26 ug/m3 46.61 ug/m3 10.99 ug/m3 25.59 C 60.46 % 1,002.63 mbar 0.4 m/s 268.75 Deg 0.17 ug/m3
2021-07-23 22:00 27.8 ug/m3 53.58 ug/m3 8.78 ug/m3 26.15 C 61.29 % 1,002.53 mbar 0.71 m/s 277.41 Deg 0.08 ug/m3
2021-07-23 21:00 12.47 ug/m3 83.32 ug/m3 8.02 ug/m3 26.83 C 58.91 % 1,002.24 mbar 0.58 m/s 248.26 Deg 0.03 ug/m3
2021-07-23 20:00 5.89 ug/m3 97.75 ug/m3 6.74 ug/m3 27.44 C 52.4 % 1,001.75 mbar 0.84 m/s 189.71 Deg 0.12 ug/m3
2021-07-23 19:00 3.61 ug/m3 102.61 ug/m3 9.89 ug/m3 28.37 C 44.85 % 1,001.57 mbar 2 m/s 21.3 Deg 0.12 ug/m3
2021-07-23 18:00 2.35 ug/m3 104.76 ug/m3 9.97 ug/m3 30.96 C 38.48 % 1,001.11 mbar 1.38 m/s 338.43 Deg 0.12 ug/m3
2021-07-23 17:00 1.78 ug/m3 107.34 ug/m3 9.8 ug/m3 31.97 C 33.44 % 1,001.20 mbar 1.44 m/s 311.21 Deg 0.23 ug/m3
2021-07-23 16:00 2.61 ug/m3 112.05 ug/m3 11.84 ug/m3 31.93 C 38.55 % 1,001.47 mbar 1.54 m/s 296.37 Deg 0.23 ug/m3
2021-07-23 15:00 5.23 ug/m3 119.94 ug/m3 11.5 ug/m3 31.9 C 41.69 % 1,001.70 mbar 1.46 m/s 315.69 Deg 0.62 ug/m3
2021-07-23 14:00 6.75 ug/m3 129.56 ug/m3 8.95 ug/m3 31.59 C 45.96 % 1,002.03 mbar 1.53 m/s 141.37 Deg 0.5 ug/m3
2021-07-23 13:00 6.62 ug/m3 122.37 ug/m3 16.25 ug/m3 31.3 C 46 % 1,002.44 mbar 1.86 m/s 161.92 Deg 0.66 ug/m3
2021-07-23 12:00 9.97 ug/m3 117.72 ug/m3 13.79 ug/m3 31.9 C 38.71 % 1,002.72 mbar 1.58 m/s 212.63 Deg 1.22 ug/m3
2021-07-23 11:00 15.32 ug/m3 108.89 ug/m3 13.28 ug/m3 31.24 C 41.64 % 1,002.88 mbar 1.45 m/s 261.25 Deg 2.1 ug/m3
2021-07-23 10:00 17.04 ug/m3 95.93 ug/m3 14.13 ug/m3 30.1 C 45.88 % 1,003.00 mbar 1.63 m/s 223.47 Deg 2.73 ug/m3
2021-07-23 09:00 18.7 ug/m3 86.01 ug/m3 15.57 ug/m3 29.26 C 48.79 % 1,002.90 mbar 1.48 m/s 219.82 Deg 3.51 ug/m3
2021-07-23 08:00 17.3 ug/m3 81.92 ug/m3 10.82 ug/m3 27.97 C 55.78 % 1,002.78 mbar 1.2 m/s 183.87 Deg 2.49 ug/m3
2021-07-23 07:00 19.1 ug/m3 70.79 ug/m3 10.56 ug/m3 26.27 C 73.93 % 1,002.46 mbar 0.85 m/s 263.83 Deg 1.74 ug/m3
2021-07-23 06:00 16.32 ug/m3 58.51 ug/m3 8.27 ug/m3 24.36 C 88.52 % 1,002.22 mbar 0.76 m/s 22.93 Deg 0.44 ug/m3
2021-07-23 05:00 7.57 ug/m3 66.83 ug/m3 10.39 ug/m3 24.15 C 89.2 % 1,001.94 mbar 1.09 m/s 98.3 Deg 0.08 ug/m3
2021-07-23 04:00 6.75 ug/m3 68.23 ug/m3 9.46 ug/m3 24.32 C 88.2 % 1,001.88 mbar 1.35 m/s 94.88 Deg 0.06 ug/m3
2021-07-23 03:00 4.91 ug/m3 76.4 ug/m3 10.56 ug/m3 24.6 C 82.94 % 1,001.96 mbar 1.68 m/s 265.08 Deg 0.07 ug/m3
2021-07-23 02:00 4.4 ug/m3 84.53 ug/m3 7 ug/m3 25.53 C 72.65 % 1,002.00 mbar 1.13 m/s 340.66 Deg 0.1 ug/m3
2021-07-23 01:00 2.3 ug/m3 94.89 ug/m3 6.66 ug/m3 25.95 C 66.51 % 1,002.20 mbar 1.25 m/s 313.89 Deg 0.03 ug/m3
2021-07-23 00:00 0.97 ug/m3 101.71 ug/m3 7.85 ug/m3 26.54 C 57.93 % 1,002.42 mbar 1.89 m/s 307.74 Deg 0.03 ug/m3
2021-07-22 23:00 1.51 ug/m3 104.53 ug/m3 6.49 ug/m3 27.22 C 50.01 % 1,002.63 mbar 2.14 m/s 310.28 Deg 0.08 ug/m3
2021-07-22 22:00 1.58 ug/m3 107.66 ug/m3 6.07 ug/m3 27.64 C 45.59 % 1,002.83 mbar 1.7 m/s 302.78 Deg 0.2 ug/m3
2021-07-22 21:00 2.51 ug/m3 108.19 ug/m3 8.02 ug/m3 27.55 C 45.98 % 1,002.93 mbar 1.24 m/s 335.22 Deg 0.11 ug/m3
2021-07-22 20:00 3.08 ug/m3 109.87 ug/m3 7.68 ug/m3 27.48 C 47.87 % 1,002.82 mbar 1.17 m/s 329.22 Deg 0.08 ug/m3
2021-07-22 19:00 2.55 ug/m3 112.82 ug/m3 9.89 ug/m3 28.02 C 46.87 % 1,002.78 mbar 1.82 m/s 342.57 Deg 0.08 ug/m3
2021-07-22 18:00 1.88 ug/m3 108.83 ug/m3 10.23 ug/m3 28.55 C 50.26 % 1,002.70 mbar 2.48 m/s 339.27 Deg 0.02 ug/m3
2021-07-22 17:00 2.11 ug/m3 93.81 ug/m3 13.79 ug/m3 30.57 C 47.84 % 1,002.56 mbar 1.92 m/s 253.72 Deg 0.35 ug/m3
2021-07-22 16:00 4.2 ug/m3 100.3 ug/m3 12.77 ug/m3 32.18 C 35.92 % 1,002.73 mbar 1.95 m/s 305.23 Deg 0.64 ug/m3
2021-07-22 15:00 5 ug/m3 102.74 ug/m3 10.9 ug/m3 32.9 C 32.57 % 1,002.95 mbar 2.03 m/s 302.57 Deg 0.69 ug/m3
2021-07-22 14:00 3.34 ug/m3 106.31 ug/m3 8.95 ug/m3 33.16 C 32.15 % 1,003.41 mbar 1.25 m/s 327.51 Deg 0.67 ug/m3
2021-07-22 13:00 2.91 ug/m3 108.87 ug/m3 11.58 ug/m3 32.5 C 35.88 % 1,004.04 mbar 1.83 m/s 177.4 Deg 0.32 ug/m3
2021-07-22 12:00 2.45 ug/m3 108.17 ug/m3 12.43 ug/m3 31.68 C 41.4 % 1,004.46 mbar 1.96 m/s 98.53 Deg 0.25 ug/m3
2021-07-22 11:00 4.36 ug/m3 107.64 ug/m3 11.58 ug/m3 31.05 C 50.37 % 1,004.67 mbar 1.44 m/s 255.64 Deg 0.51 ug/m3
2021-07-22 10:00 6.59 ug/m3 98.13 ug/m3 14.13 ug/m3 29.13 C 58.73 % 1,004.63 mbar 1.75 m/s 17.13 Deg 1 ug/m3
2021-07-22 09:00 6.8 ug/m3 91.61 ug/m3 14.56 ug/m3 27.83 C 65.1 % 1,004.60 mbar 1.6 m/s 17.87 Deg 1.02 ug/m3
2021-07-22 08:00 8.15 ug/m3 86.1 ug/m3 12.26 ug/m3 26.98 C 70.52 % 1,004.33 mbar 1.65 m/s 181.83 Deg 2.2 ug/m3
2021-07-22 07:00 10.69 ug/m3 84.37 ug/m3 11.92 ug/m3 25.93 C 76 % 1,003.99 mbar 0.93 m/s 335.77 Deg 0.52 ug/m3
2021-07-22 06:00 15.25 ug/m3 76.96 ug/m3 10.39 ug/m3 24.72 C 73.69 % 1,003.85 mbar 0.63 m/s 331.41 Deg 0.35 ug/m3
2021-07-22 05:00 18.99 ug/m3 65.18 ug/m3 10.23 ug/m3 24.06 C 58.18 % 1,003.65 mbar 0.38 m/s 310.2 Deg 0.09 ug/m3
2021-07-22 04:00 12.79 ug/m3 54.5 ug/m3 10.23 ug/m3 24.04 C 63.62 % 1,003.47 mbar 0.41 m/s 288.67 Deg 0.18 ug/m3
2021-07-22 03:00 9.49 ug/m3 61.23 ug/m3 13.45 ug/m3 23.92 C 70.53 % 1,003.53 mbar 0.47 m/s 290.72 Deg 0.13 ug/m3
2021-07-22 02:00 7.24 ug/m3 63.83 ug/m3 15.74 ug/m3 23.83 C 85.11 % 1,003.78 mbar 0.46 m/s 273.84 Deg 0.1 ug/m3
2021-07-22 01:00 7.03 ug/m3 72.32 ug/m3 15.91 ug/m3 24.33 C 87.14 % 1,004.20 mbar 0.48 m/s 282.02 Deg -0.1 ug/m3
2021-07-22 00:00 6.61 ug/m3 87.68 ug/m3 12.77 ug/m3 24.57 C 86.74 % 1,004.43 mbar 0.8 m/s 146.86 Deg 0.02 ug/m3
2021-07-21 23:00 6.3 ug/m3 88.83 ug/m3 11.84 ug/m3 24.68 C 86.32 % 1,004.48 mbar 0.71 m/s 170.16 Deg 0.03 ug/m3
2021-07-21 22:00 5.92 ug/m3 95.72 ug/m3 11.24 ug/m3 24.93 C 85.01 % 1,004.47 mbar 0.87 m/s 244.99 Deg 0.02 ug/m3
2021-07-21 21:00 4.35 ug/m3 96.09 ug/m3 11.07 ug/m3 25.39 C 81.69 % 1,004.33 mbar 1.41 m/s 14.27 Deg 0.02 ug/m3
2021-07-21 20:00 3.84 ug/m3 87.9 ug/m3 10.14 ug/m3 26 C 74.71 % 1,003.80 mbar 1.81 m/s 11.8 Deg 0 ug/m3
2021-07-21 19:00 3.11 ug/m3 95.95 ug/m3 10.82 ug/m3 27.51 C 60.95 % 1,003.34 mbar 1.51 m/s 178.35 Deg 0.19 ug/m3
2021-07-21 18:00 6.6 ug/m3 94.22 ug/m3 11.84 ug/m3 29.08 C 56.73 % 1,002.92 mbar 1.65 m/s 177.87 Deg 0.73 ug/m3
2021-07-21 17:00 4.9 ug/m3 99.74 ug/m3 12.26 ug/m3 29.82 C 55.55 % 1,002.75 mbar 1.54 m/s 259.89 Deg 0.67 ug/m3
2021-07-21 16:00 5.08 ug/m3 107.19 ug/m3 10.56 ug/m3 29.92 C 54.29 % 1,002.94 mbar 1.77 m/s 110.08 Deg 0.79 ug/m3
2021-07-21 15:00 3.46 ug/m3 106.06 ug/m3 11.07 ug/m3 30.44 C 51.25 % 1,003.14 mbar 1.51 m/s 242.21 Deg 0.42 ug/m3
2021-07-21 14:00 4.16 ug/m3 110.96 ug/m3 11.67 ug/m3 30.17 C 48.11 % 1,003.47 mbar 1.71 m/s 249.24 Deg 0.67 ug/m3
2021-07-21 13:00 4.78 ug/m3 109.16 ug/m3 14.3 ug/m3 29.81 C 47.58 % 1,003.74 mbar 2.19 m/s 211.78 Deg 0.99 ug/m3
2021-07-21 12:00 6.14 ug/m3 111.37 ug/m3 14.81 ug/m3 29.59 C 48.76 % 1,003.97 mbar 2.08 m/s 198.67 Deg 1.05 ug/m3
2021-07-21 11:00 13.76 ug/m3 110.99 ug/m3 18.04 ug/m3 29.17 C 50.97 % 1,004.08 mbar 2.14 m/s 213.55 Deg 2.03 ug/m3
2021-07-21 10:00 17.66 ug/m3 103.16 ug/m3 16.76 ug/m3 29.33 C 48.47 % 1,003.93 mbar 1.65 m/s 149.15 Deg 2.34 ug/m3
2021-07-21 09:00 15.49 ug/m3 98.93 ug/m3 20.24 ug/m3 28.76 C 47.82 % 1,003.81 mbar 1.17 m/s 156.95 Deg 2.04 ug/m3
2021-07-21 08:00 24.74 ug/m3 83.2 ug/m3 29.67 ug/m3 27.77 C 53.86 % 1,003.78 mbar 0.71 m/s 181.73 Deg 3.48 ug/m3
2021-07-21 07:00 44.09 ug/m3 55.78 ug/m3 18.38 ug/m3 25.79 C 65.3 % 1,003.56 mbar 0.47 m/s 277.12 Deg 5.43 ug/m3
2021-07-21 06:00 34.15 ug/m3 42.98 ug/m3 17.61 ug/m3 23.05 C 71.29 % 1,003.27 mbar 0.46 m/s 300.76 Deg 1.92 ug/m3
2021-07-21 05:00 14.67 ug/m3 61.4 ug/m3 17.02 ug/m3 22.45 C 87.38 % 1,002.85 mbar 0.45 m/s 238.73 Deg 0.04 ug/m3
2021-07-21 04:00 2.87 ug/m3 93.46 ug/m3 16.59 ug/m3 23.39 C 91.28 % 1,002.37 mbar 0.34 m/s 317.01 Deg 0.13 ug/m3
2021-07-21 03:00 4.82 ug/m3 87.59 ug/m3 16.59 ug/m3 23.63 C 89.72 % 1,002.35 mbar 0.48 m/s 321.48 Deg 0.01 ug/m3
2021-07-21 02:00 3.04 ug/m3 91.9 ug/m3 13.96 ug/m3 23.88 C 87.34 % 1,002.41 mbar 0.44 m/s 320.19 Deg 0.1 ug/m3
2021-07-21 01:00 3.22 ug/m3 101.07 ug/m3 15.32 ug/m3 24.09 C 85.75 % 1,002.63 mbar 0.73 m/s 258.91 Deg 0.02 ug/m3
2021-07-21 00:00 4.18 ug/m3 97.88 ug/m3 12.26 ug/m3 24.4 C 84.3 % 1,002.90 mbar 0.61 m/s 244.95 Deg 0.04 ug/m3
2021-07-20 23:00 3.5 ug/m3 104.76 ug/m3 11.67 ug/m3 24.98 C 79.04 % 1,003.06 mbar 1.4 m/s 31.18 Deg -0 ug/m3
2021-07-20 22:00 3.8 ug/m3 105.61 ug/m3 13.54 ug/m3 24.99 C 74.99 % 1,002.77 mbar 1.38 m/s 45.23 Deg 0.04 ug/m3
2021-07-20 21:00 3.88 ug/m3 112.61 ug/m3 11.33 ug/m3 25.14 C 74.03 % 1,002.35 mbar 1.6 m/s 39.28 Deg 0.04 ug/m3
2021-07-20 20:00 5.88 ug/m3 111.7 ug/m3 14.39 ug/m3 25.57 C 72.15 % 1,001.77 mbar 1.45 m/s 169.28 Deg 0.21 ug/m3
2021-07-20 19:00 9.09 ug/m3 111.43 ug/m3 15.57 ug/m3 26.77 C 67.89 % 1,001.20 mbar 1.53 m/s 225.82 Deg 0.4 ug/m3
2021-07-20 18:00 7.44 ug/m3 119.59 ug/m3 12.01 ug/m3 27.65 C 66.7 % 1,000.55 mbar 1.31 m/s 213.16 Deg 0.43 ug/m3
2021-07-20 17:00 10.04 ug/m3 109.48 ug/m3 14.64 ug/m3 28.03 C 60.56 % 1,000.28 mbar 1.75 m/s 269.7 Deg 1.09 ug/m3
2021-07-20 16:00 8.74 ug/m3 116.38 ug/m3 14.72 ug/m3 28.36 C 59.48 % 1,000.08 mbar 2.13 m/s 257.75 Deg 0.84 ug/m3
2021-07-20 15:00 8.11 ug/m3 120.82 ug/m3 17.02 ug/m3 28.88 C 57.5 % 999.91 mbar 1.83 m/s 215.28 Deg 1 ug/m3
2021-07-20 14:00 7.04 ug/m3 122.25 ug/m3 19.22 ug/m3 28.75 C 56.99 % 1,000.02 mbar 2.15 m/s 198.32 Deg 0.9 ug/m3
2021-07-20 13:00 8.67 ug/m3 122.83 ug/m3 17.02 ug/m3 28.17 C 62.02 % 1,000.13 mbar 2.29 m/s 230.25 Deg 1.35 ug/m3
2021-07-20 12:00 9.95 ug/m3 115.39 ug/m3 17.19 ug/m3 27.37 C 68.97 % 1,000.27 mbar 2.54 m/s 215.3 Deg 1.59 ug/m3
2021-07-20 11:00 9.45 ug/m3 108.98 ug/m3 17.87 ug/m3 27.18 C 68.59 % 1,000.24 mbar 2.4 m/s 223.47 Deg 1.43 ug/m3
2021-07-20 10:00 10.04 ug/m3 97.74 ug/m3 15.4 ug/m3 26.68 C 69.73 % 999.95 mbar 1.63 m/s 274.73 Deg 1.43 ug/m3
2021-07-20 09:00 6.74 ug/m3 93.23 ug/m3 12.77 ug/m3 26.26 C 69.87 % 999.74 mbar 0.95 m/s 251.1 Deg 0.86 ug/m3
2021-07-20 08:00 12.11 ug/m3 81.55 ug/m3 12.26 ug/m3 24.86 C 79.12 % 999.50 mbar 1.13 m/s 322.13 Deg 1.3 ug/m3
2021-07-20 07:00 10.49 ug/m3 79.23 ug/m3 11.5 ug/m3 24.15 C 85.12 % 999.12 mbar 0.87 m/s 318.91 Deg 0.79 ug/m3
2021-07-20 06:00 9.04 ug/m3 80.06 ug/m3 13.03 ug/m3 23.43 C 89.94 % 998.50 mbar 0.76 m/s 276.91 Deg 0.27 ug/m3
2021-07-20 05:00 3.05 ug/m3 89.54 ug/m3 11.67 ug/m3 23.3 C 89.5 % 997.88 mbar 0.87 m/s 285.91 Deg 0.03 ug/m3
2021-07-20 04:00 0.81 ug/m3 92.76 ug/m3 11.16 ug/m3 23.3 C 89.62 % 997.86 mbar 1.13 m/s 287.52 Deg 0.04 ug/m3
2021-07-20 03:00 0.61 ug/m3 93.44 ug/m3 10.9 ug/m3 23.53 C 89.19 % 998.12 mbar 1.2 m/s 301.38 Deg 0.15 ug/m3
2021-07-20 02:00 0.65 ug/m3 89.16 ug/m3 10.14 ug/m3 23.46 C 88.19 % 998.31 mbar 0.84 m/s 304.19 Deg 0.02 ug/m3
2021-07-20 01:00 1.05 ug/m3 89.51 ug/m3 10.14 ug/m3 23.4 C 87.91 % 998.52 mbar 0.7 m/s 292.62 Deg 0.07 ug/m3
2021-07-20 00:00 1.62 ug/m3 88.38 ug/m3 10.99 ug/m3 23.53 C 88.06 % 998.58 mbar 0.79 m/s 303.59 Deg 0.05 ug/m3
2021-07-19 23:00 2.05 ug/m3 91.83 ug/m3 10.73 ug/m3 23.7 C 87.01 % 998.64 mbar 0.78 m/s 288.32 Deg -0.04 ug/m3
2021-07-19 22:00 1.93 ug/m3 101.63 ug/m3 11.75 ug/m3 23.9 C 86.32 % 998.56 mbar 0.73 m/s 317.61 Deg 0.04 ug/m3
2021-07-19 21:00 3.38 ug/m3 106.19 ug/m3 10.65 ug/m3 24.11 C 84.06 % 998.27 mbar 0.86 m/s 320.53 Deg 0.07 ug/m3
2021-07-19 20:00 2.09 ug/m3 110.25 ug/m3 12.77 ug/m3 24.48 C 79.07 % 997.69 mbar 1.13 m/s 333.23 Deg 0.05 ug/m3
2021-07-19 19:00 1.53 ug/m3 116.94 ug/m3 13.37 ug/m3 25.49 C 72.96 % 997.26 mbar 1.2 m/s 310.47 Deg 0.04 ug/m3
2021-07-19 18:00 1.57 ug/m3 111.72 ug/m3 15.4 ug/m3 26.35 C 67.83 % 996.82 mbar 1.45 m/s 333.92 Deg 0.14 ug/m3
2021-07-19 17:00 3.14 ug/m3 112.87 ug/m3 10.14 ug/m3 27.21 C 62.55 % 996.78 mbar 1.7 m/s 324.59 Deg 0.4 ug/m3
2021-07-19 16:00 2.32 ug/m3 110.45 ug/m3 10.06 ug/m3 28.08 C 55.89 % 996.58 mbar 1.94 m/s 309.12 Deg 0.27 ug/m3
2021-07-19 15:00 2.7 ug/m3 111.27 ug/m3 11.67 ug/m3 27.98 C 58.5 % 996.60 mbar 1.87 m/s 324.66 Deg 0.25 ug/m3
2021-07-19 14:00 2.34 ug/m3 115.23 ug/m3 9.8 ug/m3 28.08 C 61.51 % 996.50 mbar 1.98 m/s 331.27 Deg 0.32 ug/m3
2021-07-19 13:00 2.59 ug/m3 115.25 ug/m3 11.58 ug/m3 28 C 59.94 % 996.37 mbar 1.93 m/s 334.81 Deg 0.36 ug/m3
2021-07-19 12:00 4.27 ug/m3 113.9 ug/m3 11.24 ug/m3 27.91 C 58.87 % 996.44 mbar 1.69 m/s 324.45 Deg 0.52 ug/m3
2021-07-19 11:00 4.21 ug/m3 111.53 ug/m3 8.1 ug/m3 27.11 C 58.72 % 996.50 mbar 2.07 m/s 91.8 Deg 0.48 ug/m3
2021-07-19 10:00 3.27 ug/m3 106.74 ug/m3 9.46 ug/m3 26.27 C 58.49 % 996.44 mbar 2.84 m/s 19.15 Deg 0.43 ug/m3
2021-07-19 09:00 5.44 ug/m3 101.34 ug/m3 50.55 ug/m3 26.1 C 55.3 % 996.12 mbar 2.31 m/s 25.55 Deg 0.67 ug/m3
2021-07-19 08:00 9.4 ug/m3 92.62 ug/m3 10.56 ug/m3 24.88 C 63.56 % 996.01 mbar 2.22 m/s 16.7 Deg 1.29 ug/m3
2021-07-19 07:00 17.06 ug/m3 75.96 ug/m3 10.65 ug/m3 24.1 C 70.67 % 995.72 mbar 1.08 m/s 88.89 Deg 1.39 ug/m3
2021-07-19 06:00 21.67 ug/m3 61.74 ug/m3 8.78 ug/m3 22.34 C 83.21 % 995.47 mbar 0.65 m/s 339.94 Deg 0.59 ug/m3
2021-07-19 05:00 8.56 ug/m3 75.67 ug/m3 8.27 ug/m3 22.4 C 85.7 % 995.06 mbar 0.59 m/s 162.52 Deg 0.18 ug/m3
2021-07-19 04:00 3.73 ug/m3 88.55 ug/m3 8.19 ug/m3 22.77 C 83.06 % 994.83 mbar 1.01 m/s 179.77 Deg 0.11 ug/m3
2021-07-19 03:00 5 ug/m3 86.35 ug/m3 8.44 ug/m3 22.85 C 80.99 % 994.81 mbar 1.01 m/s 181.06 Deg 0.14 ug/m3
2021-07-19 02:00 3.37 ug/m3 91.56 ug/m3 9.63 ug/m3 23.06 C 79.61 % 994.79 mbar 1.28 m/s 350.91 Deg 0.08 ug/m3
2021-07-19 01:00 2.78 ug/m3 94.9 ug/m3 9.97 ug/m3 23.34 C 77.14 % 994.87 mbar 1.38 m/s 349.02 Deg 0.1 ug/m3
2021-07-19 00:00 2.34 ug/m3 101.62 ug/m3 9.29 ug/m3 23.86 C 74.41 % 994.89 mbar 1.84 m/s 266.48 Deg 0.04 ug/m3
2021-07-18 23:00 2.14 ug/m3 102.69 ug/m3 10.48 ug/m3 23.88 C 76.29 % 994.63 mbar 1.84 m/s 340.38 Deg -0.07 ug/m3
2021-07-18 22:00 2.55 ug/m3 101.9 ug/m3 8.7 ug/m3 23.75 C 83.56 % 994.36 mbar 1.83 m/s 328.61 Deg 0.04 ug/m3
2021-07-18 21:00 0.46 ug/m3 108.12 ug/m3 8.1 ug/m3 23.89 C 83.34 % 994.10 mbar 2.48 m/s 334.22 Deg -0.07 ug/m3
2021-07-18 20:00 0.38 ug/m3 108.84 ug/m3 9.04 ug/m3 24.13 C 80.57 % 993.63 mbar 2.23 m/s 326.32 Deg 0.06 ug/m3
2021-07-18 19:00 1.05 ug/m3 108.49 ug/m3 9.38 ug/m3 24.57 C 78.73 % 993.35 mbar 2.35 m/s 334.22 Deg 0.08 ug/m3
2021-07-18 18:00 0.54 ug/m3 111.68 ug/m3 12.52 ug/m3 25.29 C 74.26 % 992.95 mbar 2.64 m/s 325.73 Deg 0.13 ug/m3
2021-07-18 17:00 0.58 ug/m3 115.77 ug/m3 18.04 ug/m3 25.94 C 70.85 % 992.92 mbar 2.55 m/s 242.1 Deg 0.13 ug/m3
2021-07-18 16:00 0.53 ug/m3 119.22 ug/m3 25.34 ug/m3 26.24 C 70.01 % 993.13 mbar 2.38 m/s 330.85 Deg 0.02 ug/m3
2021-07-18 15:00 0.41 ug/m3 116.02 ug/m3 16 ug/m3 26.56 C 67.56 % 993.40 mbar 3.59 m/s 326.48 Deg 0.03 ug/m3
2021-07-18 14:00 0.47 ug/m3 112.4 ug/m3 18.72 ug/m3 26.8 C 65.75 % 993.73 mbar 2.74 m/s 326.18 Deg 0.08 ug/m3
2021-07-18 13:00 0.53 ug/m3 108.69 ug/m3 15.15 ug/m3 26.53 C 66.17 % 993.94 mbar 3.03 m/s 322.28 Deg 0.06 ug/m3
2021-07-18 12:00 0.7 ug/m3 108.02 ug/m3 13.03 ug/m3 26.28 C 66.65 % 994.13 mbar 2.57 m/s 329.95 Deg 0.08 ug/m3
2021-07-18 11:00 1.43 ug/m3 105.59 ug/m3 10.9 ug/m3 26.27 C 66.03 % 994.44 mbar 2.54 m/s 238.78 Deg 0.32 ug/m3
2021-07-18 10:00 1.74 ug/m3 102.38 ug/m3 10.31 ug/m3 25.63 C 67.84 % 994.71 mbar 2.59 m/s 324.77 Deg 0.34 ug/m3
2021-07-18 09:00 1.8 ug/m3 101.31 ug/m3 8.87 ug/m3 25.1 C 70.24 % 994.95 mbar 2.04 m/s 326.57 Deg 0.12 ug/m3
2021-07-18 08:00 2.07 ug/m3 101.1 ug/m3 8.1 ug/m3 24.69 C 73.23 % 994.94 mbar 2.08 m/s 310.3 Deg 0.26 ug/m3
2021-07-18 07:00 2.77 ug/m3 96 ug/m3 8.44 ug/m3 23.69 C 79.57 % 994.90 mbar 1.76 m/s 328.33 Deg 0.17 ug/m3
2021-07-18 06:00 2.01 ug/m3 91.67 ug/m3 7.25 ug/m3 22.84 C 82.7 % 994.80 mbar 1.14 m/s 246.47 Deg 0.12 ug/m3
2021-07-18 05:00 1.25 ug/m3 92.78 ug/m3 7.85 ug/m3 22.54 C 83.91 % 994.83 mbar 1.35 m/s 331.78 Deg 0.14 ug/m3
2021-07-18 04:00 0.51 ug/m3 94.8 ug/m3 7.68 ug/m3 22.66 C 83.06 % 994.94 mbar 1.51 m/s 342.43 Deg 0.04 ug/m3
2021-07-18 03:00 0.71 ug/m3 93.31 ug/m3 9.04 ug/m3 22.71 C 79.69 % 995.38 mbar 1.3 m/s 253.94 Deg 0.04 ug/m3
2021-07-18 02:00 1.17 ug/m3 91.79 ug/m3 8.78 ug/m3 22.77 C 80.51 % 995.82 mbar 1.91 m/s 344.95 Deg 0.07 ug/m3
2021-07-18 01:00 1.3 ug/m3 91.38 ug/m3 8.53 ug/m3 22.94 C 80.74 % 996.15 mbar 1.67 m/s 347.25 Deg 0 ug/m3
2021-07-18 00:00 1.59 ug/m3 92.94 ug/m3 8.87 ug/m3 23.24 C 76.68 % 996.51 mbar 2.02 m/s 339.08 Deg 0.11 ug/m3
2021-07-17 23:00 0.66 ug/m3 96.31 ug/m3 7.34 ug/m3 23.3 C 75.54 % 996.67 mbar 1.79 m/s 334.28 Deg 0.02 ug/m3
2021-07-17 22:00 0.55 ug/m3 97.94 ug/m3 7 ug/m3 23.3 C 76.47 % 996.81 mbar 2.25 m/s 329.87 Deg 0.05 ug/m3
2021-07-17 21:00 0.74 ug/m3 98.04 ug/m3 7.17 ug/m3 23.51 C 74.76 % 996.74 mbar 2.11 m/s 324.6 Deg 0.02 ug/m3
2021-07-17 20:00 0.84 ug/m3 97.09 ug/m3 10.06 ug/m3 23.88 C 71.98 % 996.50 mbar 1.76 m/s 323.52 Deg -0.06 ug/m3
2021-07-17 19:00 0.57 ug/m3 94.9 ug/m3 12.01 ug/m3 24.49 C 70.37 % 996.55 mbar 2.27 m/s 337.03 Deg 0.09 ug/m3
2021-07-17 18:00 0.42 ug/m3 94.35 ug/m3 17.02 ug/m3 25.27 C 64.8 % 996.73 mbar 2.93 m/s 329.07 Deg 0.15 ug/m3
2021-07-17 17:00 0.77 ug/m3 101.58 ug/m3 18.38 ug/m3 25.83 C 59.96 % 996.98 mbar 3.51 m/s 336.02 Deg 0.15 ug/m3
2021-07-17 16:00 0.65 ug/m3 99.4 ug/m3 18.55 ug/m3 26.14 C 61.44 % 997.44 mbar 2.88 m/s 324.7 Deg 0.17 ug/m3
2021-07-17 15:00 0.66 ug/m3 94 ug/m3 19.31 ug/m3 26.44 C 61.17 % 997.81 mbar 2.7 m/s 340.48 Deg 0.16 ug/m3
2021-07-17 14:00 0.98 ug/m3 100.2 ug/m3 20.84 ug/m3 26.46 C 61.76 % 998.16 mbar 2.67 m/s 338.32 Deg 0.31 ug/m3
2021-07-17 13:00 0.96 ug/m3 91.87 ug/m3 24.57 ug/m3 26.1 C 64.59 % 998.27 mbar 3.19 m/s 341.45 Deg 0.21 ug/m3
2021-07-17 12:00 2.12 ug/m3 93.11 ug/m3 19.9 ug/m3 26.31 C 63.55 % 998.56 mbar 2.89 m/s 335.72 Deg 0.36 ug/m3
2021-07-17 11:00 3.28 ug/m3 93.92 ug/m3 14.81 ug/m3 25.95 C 63.93 % 998.82 mbar 2.22 m/s 249.27 Deg 0.49 ug/m3
2021-07-17 10:00 3.03 ug/m3 90.05 ug/m3 13.03 ug/m3 25.44 C 64.07 % 998.84 mbar 2.47 m/s 334.98 Deg 0.57 ug/m3
2021-07-17 09:00 3.41 ug/m3 85.94 ug/m3 12.01 ug/m3 25.21 C 67.16 % 998.81 mbar 2.17 m/s 340.75 Deg 0.87 ug/m3
2021-07-17 08:00 4.39 ug/m3 83.46 ug/m3 9.63 ug/m3 24.59 C 71.25 % 998.83 mbar 1.96 m/s 332.93 Deg 0.59 ug/m3
2021-07-17 07:00 3.97 ug/m3 82.41 ug/m3 8.87 ug/m3 24 C 74.83 % 998.70 mbar 2.12 m/s 258.53 Deg 0.33 ug/m3
2021-07-17 06:00 5.45 ug/m3 78.82 ug/m3 8.95 ug/m3 23.01 C 79.79 % 998.69 mbar 1.85 m/s 345.23 Deg 0.13 ug/m3
2021-07-17 05:00 1.76 ug/m3 84.63 ug/m3 7.42 ug/m3 22.87 C 79.73 % 998.83 mbar 1.75 m/s 338.58 Deg -0.01 ug/m3
2021-07-17 04:00 0.68 ug/m3 86.49 ug/m3 8.36 ug/m3 22.95 C 78.76 % 998.92 mbar 1.85 m/s 348.37 Deg 0.11 ug/m3
2021-07-17 03:00 0.82 ug/m3 84.93 ug/m3 8.02 ug/m3 23.07 C 77.17 % 999.23 mbar 1.99 m/s 250.6 Deg 0.13 ug/m3
2021-07-17 02:00 1.13 ug/m3 86.67 ug/m3 9.8 ug/m3 23.34 C 75.48 % 999.61 mbar 1.86 m/s 337.96 Deg 0.04 ug/m3
2021-07-17 01:00 1.34 ug/m3 85.57 ug/m3 8.53 ug/m3 23.51 C 75.18 % 1,000.07 mbar 2.33 m/s 349.51 Deg 0.07 ug/m3
2021-07-17 00:00 2.43 ug/m3 81.81 ug/m3 9.29 ug/m3 23.61 C 75.41 % 1,000.04 mbar 2.21 m/s 345.47 Deg 0.01 ug/m3
2021-07-16 23:00 1.81 ug/m3 86.1 ug/m3 8.95 ug/m3 23.75 C 73.51 % 1,000.21 mbar 1.65 m/s 328.96 Deg 0.04 ug/m3
2021-07-16 22:00 2.81 ug/m3 82.17 ug/m3 7.68 ug/m3 23.88 C 71.8 % 1,000.21 mbar 1.58 m/s 326.6 Deg 0.15 ug/m3
2021-07-16 21:00 1.14 ug/m3 87.56 ug/m3 7.59 ug/m3 24.21 C 68.42 % 999.98 mbar 2.02 m/s 332.15 Deg 0.03 ug/m3
2021-07-16 20:00 2.88 ug/m3 87.06 ug/m3 10.39 ug/m3 24.8 C 62.15 % 999.78 mbar 1.84 m/s 313.1 Deg 0.32 ug/m3
2021-07-16 19:00 2.43 ug/m3 88.09 ug/m3 13.54 ug/m3 25.83 C 56.89 % 999.79 mbar 2.31 m/s 330.67 Deg 0.16 ug/m3
2021-07-16 18:00 1.3 ug/m3 90.51 ug/m3 13.54 ug/m3 27.25 C 52.04 % 999.55 mbar 2.35 m/s 328.92 Deg 0.17 ug/m3
2021-07-16 17:00 1.83 ug/m3 93.52 ug/m3 10.14 ug/m3 28.3 C 47.68 % 999.73 mbar 2.27 m/s 329.03 Deg 0.31 ug/m3
2021-07-16 16:00 2.04 ug/m3 96.82 ug/m3 10.31 ug/m3 28.97 C 45.59 % 999.90 mbar 2.2 m/s 322.75 Deg 0.33 ug/m3
2021-07-16 15:00 3 ug/m3 95.2 ug/m3 10.82 ug/m3 29.93 C 39.02 % 1,000.33 mbar 2.16 m/s 348.15 Deg 0.45 ug/m3
2021-07-16 14:00 3.74 ug/m3 91.47 ug/m3 9.12 ug/m3 29.71 C 40.72 % 1,000.59 mbar 2.57 m/s 348.18 Deg 0.56 ug/m3
2021-07-16 13:00 3.68 ug/m3 87.64 ug/m3 10.14 ug/m3 29.55 C 42.69 % 1,000.82 mbar 1.92 m/s 318.17 Deg 0.78 ug/m3
2021-07-16 12:00 4.1 ug/m3 86.56 ug/m3 11.92 ug/m3 29.48 C 47.53 % 1,000.94 mbar 2.01 m/s 336.62 Deg 0.58 ug/m3
2021-07-16 11:00 5.18 ug/m3 81.05 ug/m3 12.69 ug/m3 29.01 C 56.55 % 1,000.84 mbar 1.78 m/s 246.83 Deg 0.84 ug/m3
2021-07-16 10:00 7.36 ug/m3 76.66 ug/m3 14.81 ug/m3 28.68 C 57.53 % 1,000.79 mbar 1.67 m/s 259.98 Deg 1.91 ug/m3
2021-07-16 09:00 7.51 ug/m3 71.68 ug/m3 12.18 ug/m3 27.07 C 66.08 % 1,000.52 mbar 1.81 m/s 23.92 Deg 1.32 ug/m3
2021-07-16 08:00 11.32 ug/m3 61 ug/m3 11.67 ug/m3 26.24 C 73.48 % 1,000.64 mbar 1.49 m/s 22.7 Deg 1.71 ug/m3
2021-07-16 07:00 21.59 ug/m3 38.64 ug/m3 9.29 ug/m3 24.83 C 78.05 % 1,000.39 mbar 0.96 m/s 336.49 Deg 3.05 ug/m3
2021-07-16 06:00 19.29 ug/m3 30.19 ug/m3 6.15 ug/m3 23.41 C 85.99 % 1,000.36 mbar 0.53 m/s 335.77 Deg 1.4 ug/m3
2021-07-16 05:00 4.7 ug/m3 49.13 ug/m3 6.57 ug/m3 23.55 C 85.3 % 1,000.47 mbar 0.54 m/s 246.4 Deg 0.04 ug/m3
2021-07-16 04:00 2.66 ug/m3 56.47 ug/m3 7 ug/m3 23.75 C 84.81 % 1,000.26 mbar 1.06 m/s 249.13 Deg 0.04 ug/m3
2021-07-16 03:00 1.62 ug/m3 60.87 ug/m3 6.23 ug/m3 23.86 C 82.89 % 1,000.45 mbar 0.72 m/s 315.33 Deg 0.15 ug/m3
2021-07-16 02:00 1.06 ug/m3 68.48 ug/m3 6.49 ug/m3 24.08 C 82.15 % 1,000.67 mbar 1.06 m/s 333.68 Deg 0.03 ug/m3
2021-07-16 01:00 1.75 ug/m3 68.82 ug/m3 7.85 ug/m3 24.27 C 80.6 % 1,001.10 mbar 1.53 m/s 336.03 Deg -0.1 ug/m3
2021-07-16 00:00 3.93 ug/m3 64.43 ug/m3 5.98 ug/m3 24.35 C 74.44 % 1,001.51 mbar 0.74 m/s 279.88 Deg 0.12 ug/m3
2021-07-15 23:00 3.65 ug/m3 70.57 ug/m3 5.73 ug/m3 24.6 C 69.68 % 1,001.75 mbar 0.83 m/s 291.37 Deg 0.03 ug/m3
2021-07-15 22:00 3.78 ug/m3 70.65 ug/m3 5.47 ug/m3 24.7 C 65.32 % 1,002.05 mbar 0.7 m/s 324.92 Deg 0.07 ug/m3
2021-07-15 21:00 4.32 ug/m3 74.42 ug/m3 6.74 ug/m3 24.95 C 66.17 % 1,001.84 mbar 1.22 m/s 339.59 Deg -0.03 ug/m3
2021-07-15 20:00 2.34 ug/m3 76.41 ug/m3 7.85 ug/m3 25.35 C 65.52 % 1,001.56 mbar 1.5 m/s 327.78 Deg 0.17 ug/m3
2021-07-15 19:00 1.61 ug/m3 72.98 ug/m3 11.58 ug/m3 26.03 C 63.77 % 1,001.52 mbar 1.59 m/s 320.62 Deg 0.08 ug/m3
2021-07-15 18:00 1.59 ug/m3 71.52 ug/m3 10.31 ug/m3 27.16 C 57.66 % 1,001.42 mbar 1.88 m/s 328.13 Deg 0.3 ug/m3
2021-07-15 17:00 2.07 ug/m3 79.44 ug/m3 9.38 ug/m3 28.04 C 54.68 % 1,001.62 mbar 1.87 m/s 328.27 Deg 0.33 ug/m3
2021-07-15 16:00 2.47 ug/m3 84.89 ug/m3 10.73 ug/m3 28.92 C 46.85 % 1,001.84 mbar 2.3 m/s 325.07 Deg 0.39 ug/m3
2021-07-15 15:00 2.13 ug/m3 80.25 ug/m3 14.05 ug/m3 29.72 C 38.03 % 1,001.81 mbar 1.64 m/s 324.51 Deg 0.27 ug/m3
2021-07-15 14:00 2.57 ug/m3 79.86 ug/m3 9.8 ug/m3 29.41 C 48.68 % 1,002.02 mbar 1.6 m/s 327.2 Deg 0.42 ug/m3
2021-07-15 13:00 2.02 ug/m3 83.23 ug/m3 12.77 ug/m3 29.42 C 55.23 % 1,002.18 mbar 1.79 m/s 325.92 Deg 0.19 ug/m3
2021-07-15 12:00 3.68 ug/m3 82.95 ug/m3 13.11 ug/m3 28.7 C 60.89 % 1,002.46 mbar 1.78 m/s 270.52 Deg 0.57 ug/m3
2021-07-15 11:00 5.61 ug/m3 79.73 ug/m3 15.06 ug/m3 28.16 C 64.39 % 1,002.64 mbar 1.68 m/s 176.37 Deg 0.79 ug/m3
2021-07-15 10:00 8.12 ug/m3 74.25 ug/m3 14.47 ug/m3 27.88 C 65.23 % 1,002.35 mbar 1.28 m/s 206.95 Deg 1.17 ug/m3
2021-07-15 09:00 15.28 ug/m3 57.2 ug/m3 11.92 ug/m3 27.42 C 67.92 % 1,002.19 mbar 0.73 m/s 242.6 Deg 2.66 ug/m3
2021-07-15 08:00 19.83 ug/m3 47.74 ug/m3 12.26 ug/m3 26.24 C 75.68 % 1,002.22 mbar 1.2 m/s 185.77 Deg 3.62 ug/m3
2021-07-15 07:00 17.57 ug/m3 46.17 ug/m3 14.81 ug/m3 25.39 C 81.51 % 1,002.06 mbar 1.14 m/s 162.62 Deg 2.14 ug/m3
2021-07-15 06:00 29.92 ug/m3 27.9 ug/m3 13.54 ug/m3 24.73 C 85.49 % 1,001.63 mbar 0.63 m/s 221.4 Deg 2.89 ug/m3
2021-07-15 05:00 22.13 ug/m3 34.51 ug/m3 12.6 ug/m3 24.49 C 86.22 % 1,001.34 mbar 0.89 m/s 186.57 Deg 1.77 ug/m3
2021-07-15 04:00 11.16 ug/m3 46.7 ug/m3 9.8 ug/m3 24.61 C 84.58 % 1,001.19 mbar 0.63 m/s 243.3 Deg -0.03 ug/m3
2021-07-15 03:00 4.75 ug/m3 57.95 ug/m3 9.46 ug/m3 24.89 C 82.4 % 1,001.22 mbar 0.69 m/s 27.73 Deg 0.1 ug/m3
2021-07-15 02:00 3.88 ug/m3 55.12 ug/m3 9.04 ug/m3 24.65 C 81.36 % 1,001.34 mbar 0.71 m/s 88.78 Deg 0.13 ug/m3
2021-07-15 01:00 4.52 ug/m3 55.04 ug/m3 8.7 ug/m3 24.83 C 78.96 % 1,001.48 mbar 0.75 m/s 343.25 Deg -0.08 ug/m3
2021-07-15 00:00 4.96 ug/m3 58.95 ug/m3 8.61 ug/m3 25.26 C 74.98 % 1,001.66 mbar 0.67 m/s 294.42 Deg 0.14 ug/m3
2021-07-14 23:00 3.68 ug/m3 64.67 ug/m3 10.14 ug/m3 25.76 C 71.32 % 1,001.65 mbar 0.83 m/s 304.69 Deg 0.1 ug/m3
2021-07-14 22:00 5.82 ug/m3 62.34 ug/m3 9.72 ug/m3 26.05 C 68.56 % 1,001.56 mbar 0.83 m/s 329.97 Deg 0.05 ug/m3
2021-07-14 21:00 4.25 ug/m3 66.56 ug/m3 12.01 ug/m3 26.44 C 70.05 % 1,001.24 mbar 0.76 m/s 331.03 Deg 0 ug/m3
2021-07-14 20:00 4.97 ug/m3 69.23 ug/m3 10.73 ug/m3 27.01 C 70.41 % 1,000.61 mbar 1.21 m/s 259.48 Deg 0.13 ug/m3
2021-07-14 19:00 3.25 ug/m3 73.63 ug/m3 12.86 ug/m3 27.82 C 68.16 % 1,000.28 mbar 1.31 m/s 332.19 Deg 0.07 ug/m3
2021-07-14 18:00 2.96 ug/m3 78.45 ug/m3 15.66 ug/m3 28.95 C 63.4 % 1,000.14 mbar 1.45 m/s 334.54 Deg 0.23 ug/m3
2021-07-14 17:00 2.58 ug/m3 89.26 ug/m3 17.78 ug/m3 29.67 C 58.15 % 1,000.42 mbar 1.77 m/s 326.86 Deg 0.24 ug/m3
2021-07-14 16:00 4.43 ug/m3 83.68 ug/m3 17.61 ug/m3 30.14 C 56.85 % 1,000.62 mbar 1.74 m/s 302.5 Deg 0.74 ug/m3
2021-07-14 15:00 2.31 ug/m3 83.64 ug/m3 19.56 ug/m3 30.33 C 59.82 % 1,000.78 mbar 1.78 m/s 324.02 Deg 0.47 ug/m3
2021-07-14 14:00 3.07 ug/m3 88.66 ug/m3 19.14 ug/m3 30.42 C 60.84 % 1,000.75 mbar 1.8 m/s 253.48 Deg 0.43 ug/m3
2021-07-14 13:00 5.31 ug/m3 98.18 ug/m3 16.17 ug/m3 30.39 C 61.48 % 1,000.96 mbar 1.79 m/s 264.59 Deg 1 ug/m3
2021-07-14 12:00 7.2 ug/m3 97.6 ug/m3 17.78 ug/m3 30.33 C 63.2 % 1,001.27 mbar 1.66 m/s 233.85 Deg 1.17 ug/m3
2021-07-14 11:00 7.64 ug/m3 97.06 ug/m3 14.39 ug/m3 30.09 C 62.97 % 1,001.04 mbar 1.81 m/s 91.92 Deg 1.11 ug/m3
2021-07-14 10:00 7.85 ug/m3 98 ug/m3 19.65 ug/m3 29.61 C 60.91 % 1,000.93 mbar 1.43 m/s 276.66 Deg 1.02 ug/m3
2021-07-14 09:00 7.76 ug/m3 93.72 ug/m3 13.96 ug/m3 29.94 C 51 % 1,000.71 mbar 1.52 m/s 13.17 Deg 1.09 ug/m3
2021-07-14 08:00 11.08 ug/m3 87.72 ug/m3 12.43 ug/m3 27.82 C 71.78 % 1,000.73 mbar 0.59 m/s 316.96 Deg 1.22 ug/m3
2021-07-14 07:00 14 ug/m3 66.22 ug/m3 10.23 ug/m3 26.03 C 87.25 % 1,000.84 mbar 0.55 m/s 172.34 Deg 1.03 ug/m3
2021-07-14 06:00 13.33 ug/m3 50.7 ug/m3 10.23 ug/m3 24.97 C 90.99 % 1,000.67 mbar 0.5 m/s 311.31 Deg 0.54 ug/m3
2021-07-14 05:00 2.2 ug/m3 72.04 ug/m3 9.38 ug/m3 25.09 C 89.06 % 1,000.35 mbar 0.46 m/s 312.12 Deg 0.04 ug/m3
2021-07-14 04:00 2.33 ug/m3 78.24 ug/m3 10.06 ug/m3 25.08 C 85.98 % 1,000.25 mbar 0.55 m/s 314.83 Deg 0.17 ug/m3
2021-07-14 03:00 2.54 ug/m3 80.93 ug/m3 9.8 ug/m3 25.02 C 85.69 % 1,000.03 mbar 0.61 m/s 152.36 Deg 0.11 ug/m3
2021-07-14 02:00 1.03 ug/m3 79.06 ug/m3 10.39 ug/m3 25.19 C 85.17 % 1,000.13 mbar 0.71 m/s 292.76 Deg 0.11 ug/m3
2021-07-14 01:00 2.03 ug/m3 85.52 ug/m3 11.33 ug/m3 25.66 C 81.15 % 1,000.37 mbar 0.99 m/s 255.63 Deg -0.02 ug/m3
2021-07-14 00:00 2.35 ug/m3 90.66 ug/m3 11.07 ug/m3 25.85 C 82.28 % 1,000.25 mbar 0.98 m/s 250.22 Deg 0.02 ug/m3
2021-07-13 23:00 3.89 ug/m3 86.67 ug/m3 10.56 ug/m3 25.95 C 82.24 % 1,000.19 mbar 1.15 m/s 240.42 Deg 0.13 ug/m3
2021-07-13 22:00 2.69 ug/m3 93.87 ug/m3 12.09 ug/m3 26.33 C 80.49 % 1,000.18 mbar 1.16 m/s 223.43 Deg 0.09 ug/m3
2021-07-13 21:00 4.14 ug/m3 95.43 ug/m3 10.48 ug/m3 26.81 C 76.86 % 1,000.04 mbar 1.27 m/s 214.38 Deg 0.18 ug/m3
2021-07-13 20:00 4.81 ug/m3 98.44 ug/m3 11.92 ug/m3 27.46 C 68.8 % 999.62 mbar 1.45 m/s 199.87 Deg 0.26 ug/m3
2021-07-13 19:00 4.64 ug/m3 98.36 ug/m3 10.82 ug/m3 28.28 C 60.24 % 999.20 mbar 1.9 m/s 195.33 Deg 0.31 ug/m3
2021-07-13 18:00 3.74 ug/m3 101.39 ug/m3 9.8 ug/m3 29.35 C 51.33 % 999.39 mbar 2.16 m/s 213.57 Deg 0.3 ug/m3
2021-07-13 17:00 3.85 ug/m3 97.85 ug/m3 12.86 ug/m3 30.12 C 47.98 % 999.68 mbar 2.25 m/s 238.48 Deg 0.63 ug/m3
2021-07-13 16:00 4.5 ug/m3 96.57 ug/m3 13.37 ug/m3 30.62 C 47.4 % 1,000.22 mbar 2.61 m/s 243.7 Deg 0.7 ug/m3
2021-07-13 15:00 3.62 ug/m3 96.64 ug/m3 11.75 ug/m3 30.57 C 50.39 % 1,000.49 mbar 2.51 m/s 250.97 Deg 0.71 ug/m3
2021-07-13 14:00 4.33 ug/m3 92.46 ug/m3 12.09 ug/m3 30.23 C 55.11 % 1,000.45 mbar 2.56 m/s 243.05 Deg 0.75 ug/m3
2021-07-13 13:00 4.53 ug/m3 85.17 ug/m3 11.41 ug/m3 29.87 C 54.72 % 1,000.26 mbar 3.4 m/s 212.52 Deg 0.99 ug/m3
2021-07-13 12:00 4.08 ug/m3 77.96 ug/m3 9.8 ug/m3 29.68 C 56.34 % 1,000.66 mbar 2.82 m/s 223.38 Deg 0.82 ug/m3
2021-07-13 11:00 4.87 ug/m3 75.92 ug/m3 8.95 ug/m3 29.1 C 61.12 % 1,000.71 mbar 2.77 m/s 237.65 Deg 1.22 ug/m3
2021-07-13 10:00 4.69 ug/m3 74.74 ug/m3 7.51 ug/m3 28.48 C 69.16 % 1,000.76 mbar 2.45 m/s 231.88 Deg 1.02 ug/m3
2021-07-13 09:00 5.14 ug/m3 76.68 ug/m3 9.12 ug/m3 27.83 C 74.45 % 1,000.92 mbar 2.62 m/s 242.5 Deg 0.93 ug/m3
2021-07-13 08:00 7.59 ug/m3 75.09 ug/m3 14.98 ug/m3 26.84 C 83.47 % 1,000.97 mbar 2.38 m/s 223.27 Deg 1.15 ug/m3
2021-07-13 07:00 27.14 ug/m3 44.31 ug/m3 14.64 ug/m3 25.54 C 96.41 % 1,000.52 mbar 1.56 m/s 201.27 Deg 7.33 ug/m3
2021-07-13 06:00 26.45 ug/m3 21.49 ug/m3 14.81 ug/m3 24.47 C 96.36 % 1,000.21 mbar 0.85 m/s 227.92 Deg 4.88 ug/m3
2021-07-13 05:00 12.38 ug/m3 39.1 ug/m3 11.24 ug/m3 24.55 C 93.05 % 1,000.14 mbar 1.2 m/s 176.47 Deg 0.44 ug/m3
2021-07-13 04:00 9.23 ug/m3 40.65 ug/m3 10.56 ug/m3 24.79 C 91.05 % 1,000.88 mbar 0.69 m/s 199.6 Deg 0.12 ug/m3
2021-07-13 03:00 5.2 ug/m3 55.95 ug/m3 9.8 ug/m3 25.11 C 90.87 % 1,001.44 mbar 0.58 m/s 180.81 Deg 0.07 ug/m3
2021-07-13 02:00 1.38 ug/m3 59.88 ug/m3 9.72 ug/m3 25.34 C 91.79 % 1,001.29 mbar 0.62 m/s 274.64 Deg -0.04 ug/m3
2021-07-13 01:00 0.83 ug/m3 67.31 ug/m3 7.34 ug/m3 25.64 C 89.79 % 1,001.44 mbar 0.84 m/s 224.77 Deg 0.03 ug/m3
2021-07-13 00:00 1.25 ug/m3 72.38 ug/m3 8.1 ug/m3 25.87 C 88.64 % 1,001.85 mbar 0.77 m/s 255.57 Deg 0.03 ug/m3
2021-07-12 23:00 4.63 ug/m3 66.77 ug/m3 7.51 ug/m3 26.04 C 87.08 % 1,001.95 mbar 0.85 m/s 206.78 Deg 0.07 ug/m3
2021-07-12 22:00 2.7 ug/m3 67.64 ug/m3 8.44 ug/m3 26.21 C 85.28 % 1,001.66 mbar 0.86 m/s 223.61 Deg 0.08 ug/m3
2021-07-12 21:00 2.24 ug/m3 72 ug/m3 8.53 ug/m3 26.47 C 83.63 % 1,001.31 mbar 1.46 m/s 214.3 Deg 0.05 ug/m3
2021-07-12 20:00 3.37 ug/m3 76.74 ug/m3 10.39 ug/m3 27.29 C 75.44 % 1,000.91 mbar 1.35 m/s 220.97 Deg 0.19 ug/m3
2021-07-12 19:00 3.89 ug/m3 82.98 ug/m3 9.63 ug/m3 28.22 C 65.87 % 1,000.66 mbar 1.54 m/s 208.28 Deg 0.39 ug/m3
2021-07-12 18:00 3.87 ug/m3 83.57 ug/m3 11.58 ug/m3 29.35 C 59.69 % 1,000.40 mbar 2.05 m/s 215.88 Deg 0.47 ug/m3
2021-07-12 17:00 4.7 ug/m3 82.47 ug/m3 12.86 ug/m3 30.38 C 57.18 % 1,000.65 mbar 2.07 m/s 208.83 Deg 0.47 ug/m3
2021-07-12 16:00 5.68 ug/m3 99.99 ug/m3 13.11 ug/m3 31.52 C 55.87 % 1,000.92 mbar 1.34 m/s 217.63 Deg 0.68 ug/m3
2021-07-12 15:00 6.09 ug/m3 105.01 ug/m3 12.01 ug/m3 31.06 C 58.13 % 1,001.22 mbar 1.8 m/s 24.93 Deg 0.64 ug/m3
2021-07-12 14:00 4.15 ug/m3 96.22 ug/m3 12.52 ug/m3 30.96 C 58.33 % 1,001.44 mbar 1.81 m/s 178.86 Deg 0.6 ug/m3
2021-07-12 13:00 3.78 ug/m3 86.27 ug/m3 12.86 ug/m3 29.97 C 63.07 % 1,001.66 mbar 2.56 m/s 205.78 Deg 0.79 ug/m3
2021-07-12 12:00 6.39 ug/m3 90.14 ug/m3 12.43 ug/m3 30.75 C 58.14 % 1,001.96 mbar 2.06 m/s 235.8 Deg 1.24 ug/m3
2021-07-12 11:00 7.23 ug/m3 86.06 ug/m3 17.53 ug/m3 29.68 C 59.91 % 1,001.96 mbar 1.95 m/s 210.47 Deg 3.13 ug/m3
2021-07-12 10:00 11.89 ug/m3 85.43 ug/m3 23.3 ug/m3 29.38 C 59.17 % 1,001.75 mbar 1.97 m/s 208.64 Deg 2.62 ug/m3
2021-07-12 09:00 20.05 ug/m3 77.77 ug/m3 18.38 ug/m3 28.7 C 62.26 % 1,001.47 mbar 2.01 m/s 185.72 Deg 4.17 ug/m3
2021-07-12 08:00 33.87 ug/m3 53.33 ug/m3 18.72 ug/m3 27.16 C 73.67 % 1,001.39 mbar 1.83 m/s 163.2 Deg 8.92 ug/m3
2021-07-12 07:00 45.87 ug/m3 26.32 ug/m3 15.06 ug/m3 25.67 C 81.55 % 1,001.30 mbar 1.34 m/s 173.82 Deg 17.54 ug/m3
2021-07-12 06:00 39.74 ug/m3 9.35 ug/m3 12.35 ug/m3 23.65 C 85.68 % 1,001.35 mbar 0.42 m/s 259.52 Deg 9.61 ug/m3
2021-07-12 05:00 30.31 ug/m3 15.51 ug/m3 9.8 ug/m3 23.39 C 84.3 % 1,001.18 mbar 0.36 m/s 246.01 Deg 1.91 ug/m3
2021-07-12 04:00 15.76 ug/m3 35.17 ug/m3 9.55 ug/m3 23.74 C 83.77 % 1,001.21 mbar 0.34 m/s 210.35 Deg 0.19 ug/m3
2021-07-12 03:00 10.77 ug/m3 41.17 ug/m3 9.72 ug/m3 23.97 C 82.44 % 1,001.35 mbar 0.39 m/s 228.65 Deg 0.08 ug/m3
2021-07-12 02:00 14.03 ug/m3 50.02 ug/m3 10.06 ug/m3 24.22 C 81.08 % 1,001.46 mbar 0.36 m/s 237.34 Deg 0.05 ug/m3
2021-07-12 01:00 18.67 ug/m3 43.53 ug/m3 9.89 ug/m3 24.42 C 78.61 % 1,001.71 mbar 0.63 m/s 270.67 Deg 0.03 ug/m3
2021-07-12 00:00 8.92 ug/m3 61.17 ug/m3 8.53 ug/m3 24.74 C 77.79 % 1,001.61 mbar 0.54 m/s 256.35 Deg 0.2 ug/m3
2021-07-11 23:00 5.28 ug/m3 70.75 ug/m3 9.8 ug/m3 25.29 C 71.98 % 1,001.70 mbar 0.71 m/s 230.21 Deg 0.02 ug/m3
2021-07-11 22:00 8.4 ug/m3 65.68 ug/m3 11.24 ug/m3 25.49 C 69.55 % 1,001.86 mbar 0.72 m/s 257.68 Deg 0.12 ug/m3
2021-07-11 21:00 4.14 ug/m3 82.28 ug/m3 9.04 ug/m3 25.86 C 70.25 % 1,001.58 mbar 0.81 m/s 275.42 Deg 0.13 ug/m3
2021-07-11 20:00 2.14 ug/m3 85.53 ug/m3 6.23 ug/m3 26.58 C 69.76 % 1,001.14 mbar 0.92 m/s 325.36 Deg 0.06 ug/m3
2021-07-11 19:00 1.9 ug/m3 86.46 ug/m3 7.51 ug/m3 28.01 C 60.63 % 1,000.89 mbar 1.16 m/s 327.89 Deg 0.18 ug/m3
2021-07-11 18:00 4.04 ug/m3 90.51 ug/m3 8.7 ug/m3 29.05 C 52.35 % 1,000.61 mbar 1.63 m/s 180.66 Deg 0.48 ug/m3
2021-07-11 17:00 1.75 ug/m3 94.39 ug/m3 9.72 ug/m3 29.73 C 44.33 % 1,000.42 mbar 2.08 m/s 90.93 Deg 0.2 ug/m3
2021-07-11 16:00 1.36 ug/m3 96.3 ug/m3 7.68 ug/m3 29.98 C 40.72 % 1,000.34 mbar 2.28 m/s 184.69 Deg 0.26 ug/m3
2021-07-11 15:00 1.13 ug/m3 96.79 ug/m3 8.87 ug/m3 29.78 C 39.8 % 1,000.42 mbar 2.3 m/s 29.27 Deg 0.27 ug/m3
2021-07-11 14:00 0.95 ug/m3 94.34 ug/m3 8.1 ug/m3 29.64 C 38.42 % 1,000.44 mbar 2.56 m/s 108 Deg 0.2 ug/m3
2021-07-11 13:00 1.31 ug/m3 92.43 ug/m3 7.85 ug/m3 29.59 C 39.96 % 1,000.66 mbar 2.78 m/s 25.37 Deg 0.28 ug/m3
2021-07-11 12:00 2.04 ug/m3 88.72 ug/m3 11.07 ug/m3 29.24 C 42.04 % 1,000.85 mbar 2.89 m/s 29.3 Deg 0.42 ug/m3
2021-07-11 11:00 2.7 ug/m3 88.47 ug/m3 11.16 ug/m3 28.69 C 48.51 % 1,000.79 mbar 3.01 m/s 23.7 Deg 0.4 ug/m3
2021-07-11 10:00 3.04 ug/m3 88.85 ug/m3 10.31 ug/m3 28.03 C 55.3 % 1,000.55 mbar 2.84 m/s 11.6 Deg 0.5 ug/m3
2021-07-11 09:00 5.13 ug/m3 79.13 ug/m3 9.55 ug/m3 27.08 C 64.76 % 1,000.16 mbar 2.65 m/s 27.43 Deg 0.79 ug/m3
2021-07-11 08:00 4.47 ug/m3 72.72 ug/m3 9.89 ug/m3 26.34 C 66.58 % 999.86 mbar 2.33 m/s 174.8 Deg 0.73 ug/m3
2021-07-11 07:00 3.21 ug/m3 73.75 ug/m3 8.27 ug/m3 25.68 C 72.14 % 999.71 mbar 2.36 m/s 154.85 Deg 0.42 ug/m3
2021-07-11 06:00 3.33 ug/m3 71.72 ug/m3 6.91 ug/m3 25.02 C 77.01 % 999.37 mbar 1.44 m/s 312.23 Deg 0.25 ug/m3
2021-07-11 05:00 4.08 ug/m3 67.5 ug/m3 8.7 ug/m3 24.16 C 79.9 % 999.01 mbar 1.07 m/s 197.03 Deg 0.15 ug/m3
2021-07-11 04:00 6.59 ug/m3 41.02 ug/m3 8.44 ug/m3 23.64 C 85.83 % 998.77 mbar 0.48 m/s 226.64 Deg 0.19 ug/m3
2021-07-11 03:00 4.94 ug/m3 52.72 ug/m3 7.85 ug/m3 24.03 C 85.93 % 998.83 mbar 0.62 m/s 172.92 Deg 0.07 ug/m3
2021-07-11 02:00 5.56 ug/m3 55.36 ug/m3 9.04 ug/m3 24.09 C 83.08 % 999.05 mbar 0.77 m/s 222.86 Deg 0.09 ug/m3
2021-07-11 01:00 3.75 ug/m3 65.56 ug/m3 7.76 ug/m3 24.48 C 79.69 % 999.26 mbar 0.8 m/s 248.57 Deg 0.15 ug/m3
2021-07-11 00:00 4.01 ug/m3 69.93 ug/m3 5.64 ug/m3 24.74 C 76.15 % 999.84 mbar 1.09 m/s 257.48 Deg 0.01 ug/m3
2021-07-10 23:00 2.72 ug/m3 73.39 ug/m3 7.25 ug/m3 24.89 C 74.7 % 1,000.11 mbar 1.03 m/s 295.56 Deg 0.19 ug/m3
2021-07-10 22:00 2.02 ug/m3 76.38 ug/m3 8.53 ug/m3 24.85 C 75.39 % 1,000.11 mbar 1.12 m/s 311.77 Deg 0.07 ug/m3
2021-07-10 21:00 3.98 ug/m3 76.76 ug/m3 6.49 ug/m3 25.06 C 75.23 % 999.94 mbar 0.91 m/s 336.91 Deg 0.01 ug/m3
2021-07-10 20:00 1.8 ug/m3 83.58 ug/m3 7.08 ug/m3 25.94 C 70.02 % 999.59 mbar 0.95 m/s 319.32 Deg 0.09 ug/m3
2021-07-10 19:00 2.02 ug/m3 84.75 ug/m3 8.53 ug/m3 27.12 C 63.67 % 999.46 mbar 1.42 m/s 321.32 Deg 0.25 ug/m3
2021-07-10 18:00 1.58 ug/m3 88.38 ug/m3 9.63 ug/m3 28.9 C 49.7 % 999.33 mbar 1.63 m/s 319.4 Deg 0.22 ug/m3
2021-07-10 17:00 1.45 ug/m3 95.74 ug/m3 9.04 ug/m3 29.9 C 46.49 % 999.61 mbar 1.74 m/s 335.28 Deg 0.2 ug/m3
2021-07-10 16:00 1.47 ug/m3 98.99 ug/m3 8.61 ug/m3 30.88 C 45.38 % 999.74 mbar 1.72 m/s 333.46 Deg 0.27 ug/m3
2021-07-10 15:00 1.61 ug/m3 95.24 ug/m3 9.38 ug/m3 31.79 C 41.01 % 1,000.08 mbar 1.54 m/s 323.49 Deg 0.19 ug/m3
2021-07-10 14:00 2.78 ug/m3 97.28 ug/m3 10.06 ug/m3 32.25 C 39.43 % 1,000.55 mbar 1.75 m/s 259.13 Deg 0.35 ug/m3
2021-07-10 13:00 3.43 ug/m3 92.58 ug/m3 11.16 ug/m3 31.74 C 36.32 % 1,000.99 mbar 2.11 m/s 19.93 Deg 0.48 ug/m3
2021-07-10 12:00 5.04 ug/m3 89.92 ug/m3 11.24 ug/m3 30.66 C 47.3 % 1,001.31 mbar 2.39 m/s 35.68 Deg 0.77 ug/m3
2021-07-10 11:00 4.95 ug/m3 85.53 ug/m3 13.2 ug/m3 29.56 C 54.82 % 1,001.56 mbar 2.37 m/s 99.8 Deg 0.81 ug/m3
2021-07-10 10:00 5.88 ug/m3 81.78 ug/m3 11.16 ug/m3 29.08 C 59.25 % 1,001.59 mbar 2.78 m/s 105.5 Deg 1.03 ug/m3
2021-07-10 09:00 5.44 ug/m3 76.72 ug/m3 9.89 ug/m3 28.87 C 61.6 % 1,001.43 mbar 1.94 m/s 341.22 Deg 1.12 ug/m3
2021-07-10 08:00 5.63 ug/m3 72.02 ug/m3 10.9 ug/m3 27.23 C 69.94 % 1,001.30 mbar 2.74 m/s 351.22 Deg 1.08 ug/m3
2021-07-10 07:00 8.45 ug/m3 57.93 ug/m3 10.14 ug/m3 26.54 C 80.08 % 1,001.10 mbar 1.4 m/s 340.02 Deg 0.92 ug/m3
2021-07-10 06:00 8.55 ug/m3 53.5 ug/m3 10.06 ug/m3 25.42 C 88.62 % 1,000.75 mbar 1.65 m/s 342.27 Deg 0.26 ug/m3
2021-07-10 05:00 2.71 ug/m3 61.63 ug/m3 9.12 ug/m3 25.51 C 87.43 % 1,000.70 mbar 1.39 m/s 322.17 Deg 0.04 ug/m3
2021-07-10 04:00 2.46 ug/m3 63.78 ug/m3 10.56 ug/m3 25.67 C 86.09 % 1,000.82 mbar 1.19 m/s 324.75 Deg -0.02 ug/m3
2021-07-10 03:00 1.96 ug/m3 67.44 ug/m3 7.59 ug/m3 25.78 C 85.41 % 1,001.21 mbar 1.24 m/s 325.48 Deg 0.11 ug/m3
2021-07-10 02:00 2.02 ug/m3 67.7 ug/m3 9.38 ug/m3 25.93 C 84.06 % 1,001.76 mbar 1.09 m/s 308.64 Deg 0.17 ug/m3
2021-07-10 01:00 1.88 ug/m3 68.26 ug/m3 11.41 ug/m3 26.12 C 84 % 1,002.10 mbar 2.28 m/s 305.72 Deg -0.01 ug/m3
2021-07-10 00:00 1.77 ug/m3 64.87 ug/m3 10.39 ug/m3 26.18 C 85.33 % 1,002.37 mbar 2.05 m/s 317.05 Deg 0.02 ug/m3
2021-07-09 23:00 1.91 ug/m3 66.58 ug/m3 11.67 ug/m3 26.34 C 86.09 % 1,002.55 mbar 1.52 m/s 333.67 Deg 0.05 ug/m3
2021-07-09 22:00 2.61 ug/m3 78 ug/m3 12.77 ug/m3 26.69 C 79.6 % 1,002.60 mbar 1.38 m/s 335.84 Deg -0.03 ug/m3
2021-07-09 21:00 2.48 ug/m3 89.5 ug/m3 11.84 ug/m3 27.1 C 73.88 % 1,002.31 mbar 1.29 m/s 323.22 Deg 0.08 ug/m3
2021-07-09 20:00 2.44 ug/m3 87.13 ug/m3 12.01 ug/m3 27.43 C 73.33 % 1,002.16 mbar 1.51 m/s 326.75 Deg 0.15 ug/m3
2021-07-09 19:00 2.13 ug/m3 88.19 ug/m3 13.2 ug/m3 28.29 C 69.36 % 1,002.31 mbar 1.61 m/s 332.67 Deg 0.1 ug/m3
2021-07-09 18:00 1.78 ug/m3 86.37 ug/m3 13.2 ug/m3 30.06 C 56.82 % 1,002.37 mbar 1.64 m/s 328.68 Deg 0.17 ug/m3
2021-07-09 17:00 2.82 ug/m3 84.1 ug/m3 14.39 ug/m3 30.75 C 48.03 % 1,002.89 mbar 1.69 m/s 327.14 Deg 0.39 ug/m3
2021-07-09 16:00 2.44 ug/m3 79.91 ug/m3 12.6 ug/m3 30.5 C 56.26 % 1,003.52 mbar 2.22 m/s 309.65 Deg 0.72 ug/m3
2021-07-09 15:00 2.4 ug/m3 70.91 ug/m3 11.41 ug/m3 30.54 C 53.72 % 1,003.85 mbar 2.03 m/s 332.64 Deg 0.84 ug/m3
2021-07-09 14:00 2.8 ug/m3 70.59 ug/m3 13.03 ug/m3 30.98 C 49.65 % 1,003.99 mbar 2 m/s 245.9 Deg 1.24 ug/m3
2021-07-09 13:00 2.7 ug/m3 75.26 ug/m3 16.51 ug/m3 31.57 C 40.7 % 1,004.22 mbar 1.76 m/s 331.06 Deg 0.72 ug/m3
2021-07-09 12:00 4.4 ug/m3 73.53 ug/m3 11.07 ug/m3 31.82 C 41.09 % 1,004.42 mbar 1.72 m/s 321.92 Deg 1.07 ug/m3
2021-07-09 11:00 10.47 ug/m3 68.42 ug/m3 14.39 ug/m3 32.73 C 32.58 % 1,004.46 mbar 1.45 m/s 309.35 Deg 3.65 ug/m3
2021-07-09 10:00 8.51 ug/m3 67.44 ug/m3 16.51 ug/m3 32.5 C 36.27 % 1,004.45 mbar 1.37 m/s 313.56 Deg 1.74 ug/m3
2021-07-09 09:00 6.84 ug/m3 70.86 ug/m3 12.94 ug/m3 31.14 C 41.54 % 1,004.47 mbar 1.34 m/s 333.3 Deg 1.84 ug/m3
2021-07-09 08:00 7.87 ug/m3 68.87 ug/m3 9.29 ug/m3 28.83 C 57.72 % 1,004.65 mbar 1.34 m/s 321.33 Deg 1.12 ug/m3
2021-07-09 07:00 5.26 ug/m3 66.81 ug/m3 10.73 ug/m3 26.83 C 79.05 % 1,004.83 mbar 0.99 m/s 327.69 Deg 0.92 ug/m3
2021-07-09 06:00 4.28 ug/m3 67.69 ug/m3 7.42 ug/m3 26.25 C 79.96 % 1,004.90 mbar 0.86 m/s 321.83 Deg 0.19 ug/m3
2021-07-09 05:00 3.5 ug/m3 66.92 ug/m3 9.21 ug/m3 25.9 C 72.81 % 1,004.62 mbar 0.84 m/s 315.58 Deg 0.02 ug/m3
2021-07-09 04:00 5.01 ug/m3 68.01 ug/m3 12.43 ug/m3 26.48 C 57.68 % 1,004.35 mbar 0.89 m/s 312.1 Deg 0.13 ug/m3
2021-07-09 03:00 4.36 ug/m3 58.26 ug/m3 11.84 ug/m3 25.7 C 54.64 % 1,004.38 mbar 0.44 m/s 284.33 Deg 0.19 ug/m3
2021-07-09 02:00 2.45 ug/m3 70.29 ug/m3 11.41 ug/m3 26.22 C 60.12 % 1,004.76 mbar 0.43 m/s 293.9 Deg 0.05 ug/m3
2021-07-09 01:00 3.13 ug/m3 68.87 ug/m3 9.8 ug/m3 25.94 C 66.63 % 1,005.18 mbar 0.51 m/s 305.83 Deg 0.13 ug/m3
2021-07-09 00:00 4.26 ug/m3 61.78 ug/m3 10.99 ug/m3 26.28 C 79.96 % 1,005.57 mbar 0.59 m/s 317.7 Deg 0.07 ug/m3
2021-07-08 23:00 2.68 ug/m3 67.79 ug/m3 8.7 ug/m3 26.73 C 78.79 % 1,005.81 mbar 1.21 m/s 259.76 Deg 0.06 ug/m3
2021-07-08 22:00 2.52 ug/m3 71.09 ug/m3 9.29 ug/m3 27.48 C 70.75 % 1,005.47 mbar 1.39 m/s 345.07 Deg 0.09 ug/m3
2021-07-08 21:00 3.08 ug/m3 78.64 ug/m3 10.14 ug/m3 28.09 C 55.58 % 1,005.03 mbar 1.12 m/s 345.89 Deg 0 ug/m3
2021-07-08 20:00 5.46 ug/m3 78.9 ug/m3 10.9 ug/m3 29.45 C 47.27 % 1,004.46 mbar 0.76 m/s 307.29 Deg -0.03 ug/m3
2021-07-08 19:00 7.65 ug/m3 78.36 ug/m3 7 ug/m3 31.87 C 31.27 % 1,004.11 mbar 0.81 m/s 242.9 Deg 0.34 ug/m3
2021-07-08 18:00 15.2 ug/m3 78.75 ug/m3 4.37 ug/m3 33.53 C 29.9 % 1,003.62 mbar 0.81 m/s 253.57 Deg 1.32 ug/m3
2021-07-08 17:00 1.95 ug/m3 90.47 ug/m3 9.55 ug/m3 33.9 C 23.7 % 1,003.81 mbar 1.11 m/s 247.82 Deg 0.23 ug/m3
2021-07-08 16:00 2.39 ug/m3 91.04 ug/m3 12.77 ug/m3 33.06 C 31.24 % 1,004.21 mbar 1.53 m/s 268 Deg 0.32 ug/m3
2021-07-08 15:00 6.06 ug/m3 90.88 ug/m3 8.53 ug/m3 33.18 C 35.57 % 1,004.29 mbar 1.41 m/s 243.83 Deg 2.82 ug/m3
2021-07-08 14:00 5.28 ug/m3 95.93 ug/m3 8.53 ug/m3 32.63 C 42.63 % 1,004.32 mbar 1.82 m/s 173.44 Deg 0.85 ug/m3
2021-07-08 13:00 4.54 ug/m3 95.66 ug/m3 8.78 ug/m3 32.27 C 44.05 % 1,004.59 mbar 2.01 m/s 270.93 Deg 0.54 ug/m3
2021-07-08 12:00 5.6 ug/m3 92.2 ug/m3 8.95 ug/m3 31.63 C 43.57 % 1,004.97 mbar 2.52 m/s 21.5 Deg 0.95 ug/m3
2021-07-08 11:00 6.37 ug/m3 88.01 ug/m3 11.75 ug/m3 30.31 C 56.28 % 1,005.18 mbar 2.55 m/s 20.63 Deg 1.08 ug/m3
2021-07-08 10:00 5.66 ug/m3 81.25 ug/m3 15.49 ug/m3 31.09 C 49.01 % 1,005.31 mbar 1.65 m/s 180.07 Deg 0.93 ug/m3
2021-07-08 09:00 9.03 ug/m3 76.26 ug/m3 19.39 ug/m3 30.3 C 48.58 % 1,005.23 mbar 1.76 m/s 331.77 Deg 1.47 ug/m3
2021-07-08 08:00 33.09 ug/m3 42.35 ug/m3 17.87 ug/m3 29.04 C 62.36 % 1,004.43 mbar 0.84 m/s 222.44 Deg 9.55 ug/m3
2021-07-08 07:00 34.13 ug/m3 28.58 ug/m3 15.57 ug/m3 26.48 C 84.7 % 1,003.63 mbar 0.53 m/s 202.12 Deg 10.36 ug/m3
2021-07-08 06:00 31.01 ug/m3 18.4 ug/m3 9.38 ug/m3 24.63 C 91.46 % 1,003.47 mbar 0.63 m/s 261.03 Deg 6.06 ug/m3
2021-07-08 05:00 12.99 ug/m3 42.61 ug/m3 8.87 ug/m3 24.93 C 90.23 % 1,003.57 mbar 0.55 m/s 323.58 Deg 0.19 ug/m3
2021-07-08 04:00 8.17 ug/m3 52.91 ug/m3 9.12 ug/m3 25.22 C 86.22 % 1,003.64 mbar 0.87 m/s 346.14 Deg 0.16 ug/m3
2021-07-08 03:00 7.49 ug/m3 57.22 ug/m3 9.04 ug/m3 25.45 C 81.4 % 1,003.88 mbar 0.94 m/s 338.58 Deg 0.1 ug/m3
2021-07-08 02:00 3.77 ug/m3 63.68 ug/m3 8.02 ug/m3 25.77 C 77.6 % 1,003.84 mbar 0.83 m/s 347.84 Deg 0.03 ug/m3
2021-07-08 01:00 3.65 ug/m3 65.12 ug/m3 7.34 ug/m3 26.18 C 74.37 % 1,003.80 mbar 0.39 m/s 299.08 Deg 0.01 ug/m3
2021-07-08 00:00 4.17 ug/m3 65.07 ug/m3 7.93 ug/m3 26.5 C 72.21 % 1,004.01 mbar 0.5 m/s 305.24 Deg 0.08 ug/m3
2021-07-07 23:00 4.4 ug/m3 66.16 ug/m3 8.78 ug/m3 26.78 C 69.73 % 1,003.82 mbar 0.7 m/s 252.88 Deg 0.17 ug/m3
2021-07-07 22:00 6.04 ug/m3 72.91 ug/m3 9.46 ug/m3 27.34 C 58 % 1,003.53 mbar 0.85 m/s 223.46 Deg 0.24 ug/m3
2021-07-07 21:00 7.71 ug/m3 77.87 ug/m3 12.77 ug/m3 28.17 C 46 % 1,003.16 mbar 0.69 m/s 259.21 Deg 0.01 ug/m3
2021-07-07 20:00 9.44 ug/m3 81.73 ug/m3 10.14 ug/m3 29.04 C 42.11 % 1,002.61 mbar 0.97 m/s 258.04 Deg 0.23 ug/m3
2021-07-07 19:00 5.95 ug/m3 89.7 ug/m3 11.16 ug/m3 29.96 C 40.78 % 1,002.21 mbar 1.62 m/s 264.92 Deg 0.32 ug/m3
2021-07-07 18:00 13.21 ug/m3 91.72 ug/m3 11.84 ug/m3 30.6 C 48.95 % 1,001.87 mbar 1.33 m/s 266.68 Deg 1.31 ug/m3
2021-07-07 17:00 12.79 ug/m3 102.48 ug/m3 13.28 ug/m3 31.02 C 55.09 % 1,001.93 mbar 1.17 m/s 216.77 Deg 1.7 ug/m3
2021-07-07 16:00 8.57 ug/m3 108.32 ug/m3 16.17 ug/m3 30.65 C 56.62 % 1,002.22 mbar 1.64 m/s 285.03 Deg 1.3 ug/m3
2021-07-07 15:00 6.73 ug/m3 106.04 ug/m3 12.77 ug/m3 31.15 C 55 % 1,002.22 mbar 1.81 m/s 300.8 Deg 1 ug/m3
2021-07-07 14:00 8.71 ug/m3 107.21 ug/m3 9.55 ug/m3 31.36 C 51.34 % 1,002.39 mbar 2.01 m/s 82.42 Deg 1.62 ug/m3
2021-07-07 13:00 9.89 ug/m3 104.58 ug/m3 14.81 ug/m3 32.62 C 42.28 % 1,002.17 mbar 1.49 m/s 172.86 Deg 1.31 ug/m3
2021-07-07 12:00 10.99 ug/m3 103.55 ug/m3 16.17 ug/m3 32.6 C 42.93 % 1,002.18 mbar 1.49 m/s 173.79 Deg 1.47 ug/m3
2021-07-07 11:00 10.29 ug/m3 91.55 ug/m3 14.72 ug/m3 32.91 C 30.01 % 1,001.95 mbar 1.28 m/s 248.29 Deg 2.47 ug/m3
2021-07-07 10:00 12.53 ug/m3 86.29 ug/m3 19.56 ug/m3 31.8 C 31.29 % 1,001.77 mbar 1.59 m/s 213.34 Deg 2.97 ug/m3
2021-07-07 09:00 33.32 ug/m3 65.73 ug/m3 17.27 ug/m3 30 C 49.44 % 1,001.47 mbar 1.2 m/s 192.89 Deg 8.32 ug/m3
2021-07-07 08:00 32.12 ug/m3 63.38 ug/m3 21.6 ug/m3 27.88 C 60.45 % 1,001.38 mbar 1.26 m/s 207.8 Deg 6.91 ug/m3
2021-07-07 07:00 56.68 ug/m3 26.3 ug/m3 13.37 ug/m3 26.22 C 72.3 % 1,001.11 mbar 0.73 m/s 203.2 Deg 20.87 ug/m3
2021-07-07 06:00 47.22 ug/m3 29.82 ug/m3 12.77 ug/m3 24.26 C 77.53 % 1,000.87 mbar 0.37 m/s 265.45 Deg 5.82 ug/m3
2021-07-07 05:00 22.09 ug/m3 45.27 ug/m3 12.09 ug/m3 23.43 C 76.69 % 1,000.87 mbar 0.37 m/s 280.49 Deg 0.18 ug/m3
2021-07-07 04:00 16.16 ug/m3 46.19 ug/m3 10.23 ug/m3 23.82 C 79.94 % 1,001.03 mbar 0.36 m/s 236.01 Deg 0.45 ug/m3
2021-07-07 03:00 3.09 ug/m3 87.12 ug/m3 10.73 ug/m3 24.58 C 80.71 % 1,001.07 mbar 0.65 m/s 344.27 Deg 0.05 ug/m3
2021-07-07 02:00 1.51 ug/m3 94.29 ug/m3 9.38 ug/m3 24.88 C 79.65 % 1,001.30 mbar 0.76 m/s 336.51 Deg 0.1 ug/m3
2021-07-07 01:00 3.05 ug/m3 93.07 ug/m3 10.23 ug/m3 25.22 C 77.19 % 1,001.32 mbar 0.78 m/s 343.48 Deg -0.03 ug/m3
2021-07-07 00:00 7.64 ug/m3 85.16 ug/m3 13.03 ug/m3 25.61 C 72.62 % 1,001.50 mbar 0.55 m/s 318.86 Deg 0.12 ug/m3
2021-07-06 23:00 12.34 ug/m3 71.61 ug/m3 13.2 ug/m3 25.62 C 69.47 % 1,001.39 mbar 0.66 m/s 293.23 Deg 0.14 ug/m3
2021-07-06 22:00 12.42 ug/m3 80.57 ug/m3 14.3 ug/m3 25.9 C 67.68 % 1,001.13 mbar 0.93 m/s 247.36 Deg 0.19 ug/m3
2021-07-06 21:00 18.7 ug/m3 77 ug/m3 11.33 ug/m3 26.46 C 65.92 % 1,000.74 mbar 0.85 m/s 207.97 Deg 0.61 ug/m3
2021-07-06 20:00 7.82 ug/m3 99.84 ug/m3 13.28 ug/m3 27.33 C 62.85 % 1,000.32 mbar 0.9 m/s 247.98 Deg 0.28 ug/m3
2021-07-06 19:00 12.66 ug/m3 93.53 ug/m3 12.77 ug/m3 28.7 C 54.02 % 1,000.23 mbar 1.15 m/s 248.38 Deg 0.76 ug/m3
2021-07-06 18:00 11.02 ug/m3 93.41 ug/m3 11.16 ug/m3 29.94 C 48.06 % 1,000.03 mbar 1.39 m/s 272.2 Deg 1.76 ug/m3
2021-07-06 17:00 6.57 ug/m3 100.66 ug/m3 9.12 ug/m3 30.83 C 44.12 % 1,000.20 mbar 1.42 m/s 189.42 Deg 0.68 ug/m3
2021-07-06 16:00 8.08 ug/m3 93.01 ug/m3 11.07 ug/m3 31.11 C 38.26 % 1,000.10 mbar 1.53 m/s 336.47 Deg 1.55 ug/m3
2021-07-06 15:00 7.94 ug/m3 93.7 ug/m3 10.73 ug/m3 30.89 C 38.08 % 1,000.32 mbar 1.86 m/s 189.47 Deg 1.91 ug/m3
2021-07-06 14:00 6.71 ug/m3 92.16 ug/m3 10.9 ug/m3 30.89 C 39.78 % 1,000.49 mbar 2.06 m/s 196.83 Deg 1.55 ug/m3
2021-07-06 13:00 5.33 ug/m3 91.16 ug/m3 10.14 ug/m3 30.96 C 38.99 % 1,000.78 mbar 1.84 m/s 106.45 Deg 0.95 ug/m3
2021-07-06 12:00 5.6 ug/m3 87.6 ug/m3 8.87 ug/m3 30.34 C 39.78 % 1,001.03 mbar 2.12 m/s 90.1 Deg 1.08 ug/m3
2021-07-06 11:00 6.58 ug/m3 86.01 ug/m3 13.71 ug/m3 29.89 C 42.74 % 1,001.02 mbar 2.02 m/s 320.95 Deg 1.8 ug/m3
2021-07-06 10:00 8.04 ug/m3 84.4 ug/m3 12.09 ug/m3 29.37 C 47.03 % 1,000.75 mbar 1.85 m/s 320.03 Deg 2.07 ug/m3
2021-07-06 09:00 13.03 ug/m3 75.72 ug/m3 12.43 ug/m3 28.68 C 53.21 % 1,000.69 mbar 1.73 m/s 255.47 Deg 4.13 ug/m3
2021-07-06 08:00 17.27 ug/m3 65.62 ug/m3 14.89 ug/m3 27.8 C 58.75 % 1,000.45 mbar 1.53 m/s 228.87 Deg 4.12 ug/m3
2021-07-06 07:00 17.95 ug/m3 62.66 ug/m3 9.38 ug/m3 26.57 C 64.4 % 1,000.26 mbar 1.54 m/s 163.75 Deg 4.45 ug/m3
2021-07-06 06:00 19.84 ug/m3 56.84 ug/m3 9.04 ug/m3 25.53 C 71.5 % 1,000.05 mbar 1.26 m/s 206.91 Deg 2.46 ug/m3
2021-07-06 05:00 11.15 ug/m3 62.68 ug/m3 8.27 ug/m3 25.13 C 74.75 % 999.75 mbar 1.21 m/s 194.57 Deg 1.22 ug/m3
2021-07-06 04:00 3.41 ug/m3 72.59 ug/m3 10.39 ug/m3 25.35 C 73.39 % 999.65 mbar 1.24 m/s 188.53 Deg 0.22 ug/m3
2021-07-06 03:00 2.58 ug/m3 73.66 ug/m3 10.14 ug/m3 25.46 C 73.9 % 999.74 mbar 1.33 m/s 223.93 Deg 0.1 ug/m3
2021-07-06 02:00 1.05 ug/m3 77.19 ug/m3 10.48 ug/m3 25.72 C 72.89 % 999.82 mbar 1.44 m/s 260.62 Deg -0.01 ug/m3
2021-07-06 01:00 1.47 ug/m3 78.06 ug/m3 10.65 ug/m3 26 C 69.7 % 999.88 mbar 1.95 m/s 290.78 Deg 0.12 ug/m3
2021-07-06 00:00 3.78 ug/m3 76.53 ug/m3 11.75 ug/m3 26.19 C 69.85 % 1,000.31 mbar 2.21 m/s 258.15 Deg 0.16 ug/m3
2021-07-05 23:00 3.55 ug/m3 84.74 ug/m3 13.62 ug/m3 26.47 C 68.17 % 1,000.32 mbar 1.97 m/s 215 Deg 0.33 ug/m3
2021-07-05 22:00 5.81 ug/m3 90.96 ug/m3 12.43 ug/m3 26.86 C 64.28 % 1,000.06 mbar 2.02 m/s 308.15 Deg 0.34 ug/m3
2021-07-05 21:00 6.87 ug/m3 93.55 ug/m3 14.47 ug/m3 26.77 C 67.19 % 999.60 mbar 1.65 m/s 23.25 Deg 0.08 ug/m3
2021-07-05 20:00 7.29 ug/m3 77.58 ug/m3 10.56 ug/m3 26.52 C 73.78 % 998.87 mbar 2.2 m/s 12.65 Deg 0.23 ug/m3
2021-07-05 19:00 3.16 ug/m3 79.56 ug/m3 14.89 ug/m3 27.35 C 67.86 % 998.46 mbar 3.42 m/s 105.67 Deg 0.38 ug/m3
2021-07-05 18:00 3.25 ug/m3 79.99 ug/m3 14.13 ug/m3 29.7 C 55.37 % 997.46 mbar 1.99 m/s 327.42 Deg 0.39 ug/m3
2021-07-05 17:00 2.95 ug/m3 86.45 ug/m3 15.49 ug/m3 29.77 C 57.5 % 997.37 mbar 2.06 m/s 325.92 Deg 0.51 ug/m3
2021-07-05 16:00 2.06 ug/m3 82.92 ug/m3 16.08 ug/m3 29.02 C 66.44 % 997.56 mbar 2.16 m/s 326.4 Deg 0.53 ug/m3
2021-07-05 15:00 2.14 ug/m3 78.74 ug/m3 17.87 ug/m3 29.19 C 65.42 % 997.69 mbar 2.49 m/s 335.4 Deg 0.47 ug/m3
2021-07-05 14:00 3.01 ug/m3 82.82 ug/m3 17.44 ug/m3 29.05 C 64.25 % 997.98 mbar 2.08 m/s 331.47 Deg 0.46 ug/m3
2021-07-05 13:00 3.42 ug/m3 80.24 ug/m3 14.56 ug/m3 28.8 C 63.46 % 998.27 mbar 2.4 m/s 338.87 Deg 0.92 ug/m3
2021-07-05 12:00 3.16 ug/m3 85.74 ug/m3 16.34 ug/m3 28.67 C 63.55 % 998.39 mbar 2.19 m/s 321.62 Deg 0.81 ug/m3
2021-07-05 11:00 5.79 ug/m3 92.65 ug/m3 17.02 ug/m3 28.48 C 62.6 % 998.54 mbar 2.55 m/s 330.35 Deg 1.39 ug/m3
2021-07-05 10:00 5.72 ug/m3 93.24 ug/m3 13.11 ug/m3 28.66 C 61.84 % 998.53 mbar 1.99 m/s 334.81 Deg 0.85 ug/m3
2021-07-05 09:00 8.97 ug/m3 89.06 ug/m3 13.79 ug/m3 28.32 C 59.78 % 998.69 mbar 2.2 m/s 344.9 Deg 1.86 ug/m3
2021-07-05 08:00 7.25 ug/m3 82.67 ug/m3 31.11 ug/m3 27.25 C 67.06 % 998.91 mbar 2.27 m/s 341.07 Deg 1.16 ug/m3
2021-07-05 07:00 6.2 ug/m3 71.92 ug/m3 11.75 ug/m3 26.48 C 78.54 % 998.88 mbar 1.69 m/s 333.83 Deg 1.01 ug/m3
2021-07-05 06:00 5.86 ug/m3 66.47 ug/m3 10.56 ug/m3 25.85 C 82.02 % 998.81 mbar 1.19 m/s 324.32 Deg 0.14 ug/m3
2021-07-05 05:00 4.03 ug/m3 77.26 ug/m3 12.69 ug/m3 25.66 C 79.13 % 998.54 mbar 1.12 m/s 325.55 Deg 0.12 ug/m3
2021-07-05 04:00 3.22 ug/m3 79.95 ug/m3 13.2 ug/m3 25.78 C 79.94 % 998.60 mbar 1.14 m/s 337.54 Deg 0.17 ug/m3
2021-07-05 03:00 4.02 ug/m3 80.28 ug/m3 11.24 ug/m3 26.5 C 76.62 % 999.00 mbar 1.26 m/s 308.78 Deg 0.1 ug/m3
2021-07-05 02:00 2.17 ug/m3 84.52 ug/m3 10.39 ug/m3 27.13 C 57.27 % 999.33 mbar 0.96 m/s 266.33 Deg 0.09 ug/m3
2021-07-05 01:00 1.67 ug/m3 88.71 ug/m3 11.67 ug/m3 28.09 C 45.34 % 999.67 mbar 0.86 m/s 288.85 Deg 0.07 ug/m3
2021-07-05 00:00 2.69 ug/m3 91.68 ug/m3 13.88 ug/m3 28.18 C 44.21 % 1,000.03 mbar 1.02 m/s 266.44 Deg 0.04 ug/m3
2021-07-04 23:00 6.16 ug/m3 84.64 ug/m3 13.28 ug/m3 27.58 C 53.69 % 999.94 mbar 0.7 m/s 250.17 Deg 0.26 ug/m3
2021-07-04 22:00 10.22 ug/m3 75.58 ug/m3 13.11 ug/m3 27.19 C 59.03 % 1,000.10 mbar 0.75 m/s 248.25 Deg 0.45 ug/m3
2021-07-04 21:00 5.95 ug/m3 80.14 ug/m3 12.43 ug/m3 27.64 C 67.69 % 999.96 mbar 0.75 m/s 212.89 Deg 0.64 ug/m3
2021-07-04 20:00 5.62 ug/m3 84.1 ug/m3 15.57 ug/m3 28.03 C 64.73 % 999.45 mbar 1.4 m/s 211.75 Deg 0.2 ug/m3
2021-07-04 19:00 4.18 ug/m3 92.55 ug/m3 15.23 ug/m3 29.31 C 52.22 % 999.34 mbar 2.27 m/s 214.4 Deg 0.53 ug/m3
2021-07-04 18:00 5.29 ug/m3 99.91 ug/m3 11.33 ug/m3 31.41 C 38.07 % 999.32 mbar 1.86 m/s 212.67 Deg 0.91 ug/m3
2021-07-04 17:00 3.26 ug/m3 103.04 ug/m3 9.21 ug/m3 32.37 C 30.15 % 999.60 mbar 1.96 m/s 205.75 Deg 0.55 ug/m3
2021-07-04 16:00 2.71 ug/m3 101.71 ug/m3 10.56 ug/m3 33.83 C 21.93 % 999.90 mbar 2.06 m/s 215.63 Deg 0.48 ug/m3
2021-07-04 15:00 2.31 ug/m3 103.61 ug/m3 8.27 ug/m3 34.34 C 18.46 % 1,000.20 mbar 1.96 m/s 217.99 Deg 0.37 ug/m3
2021-07-04 14:00 1.82 ug/m3 102.79 ug/m3 9.63 ug/m3 34.36 C 19.65 % 1,000.57 mbar 1.52 m/s 251.58 Deg 0.34 ug/m3
2021-07-04 13:00 1.82 ug/m3 100.14 ug/m3 12.6 ug/m3 34.46 C 18.59 % 1,000.70 mbar 1.57 m/s 254.67 Deg 0.18 ug/m3
2021-07-04 12:00 3.41 ug/m3 109.3 ug/m3 10.9 ug/m3 34.08 C 20.92 % 1,001.07 mbar 1.22 m/s 278.75 Deg 0.46 ug/m3
2021-07-04 11:00 2.83 ug/m3 111.1 ug/m3 11.5 ug/m3 33.23 C 22.72 % 1,001.68 mbar 1.55 m/s 266.95 Deg 0.33 ug/m3
2021-07-04 10:00 3.66 ug/m3 110.22 ug/m3 10.99 ug/m3 32.53 C 24.58 % 1,001.84 mbar 1.52 m/s 264.75 Deg 0.45 ug/m3
2021-07-04 09:00 3.77 ug/m3 105.99 ug/m3 16.42 ug/m3 31.74 C 24.97 % 1,001.93 mbar 1.6 m/s 268.02 Deg 0.52 ug/m3
2021-07-04 08:00 6.04 ug/m3 101.99 ug/m3 16.59 ug/m3 30.98 C 30.18 % 1,001.98 mbar 1.09 m/s 293.17 Deg 0.73 ug/m3
2021-07-04 07:00 7.77 ug/m3 99.9 ug/m3 14.89 ug/m3 28.21 C 51.42 % 1,001.82 mbar 0.5 m/s 251.75 Deg 0.44 ug/m3
2021-07-04 06:00 5.38 ug/m3 102.06 ug/m3 12.26 ug/m3 25.67 C 69.48 % 1,001.80 mbar 0.82 m/s 275.56 Deg 0.17 ug/m3
2021-07-04 05:00 1.66 ug/m3 103.02 ug/m3 14.56 ug/m3 25.17 C 80.35 % 1,001.60 mbar 1.5 m/s 259.03 Deg 0.08 ug/m3
2021-07-04 04:00 1.4 ug/m3 102.71 ug/m3 11.92 ug/m3 25.17 C 83.82 % 1,001.45 mbar 1.21 m/s 280.86 Deg 0.21 ug/m3
2021-07-04 03:00 2.85 ug/m3 96.94 ug/m3 18.12 ug/m3 24.39 C 72.67 % 1,001.37 mbar 0.92 m/s 271.46 Deg 0.21 ug/m3
2021-07-04 02:00 6.9 ug/m3 97.52 ug/m3 17.27 ug/m3 24.29 C 75.98 % 1,001.38 mbar 0.89 m/s 231.14 Deg 0.05 ug/m3
2021-07-04 01:00 7.94 ug/m3 109.22 ug/m3 18.97 ug/m3 25.08 C 75.16 % 1,002.06 mbar 0.71 m/s 264.43 Deg 0.14 ug/m3
2021-07-04 00:00 11.83 ug/m3 110.77 ug/m3 18.04 ug/m3 25.55 C 69.72 % 1,002.59 mbar 0.98 m/s 242.78 Deg 0.3 ug/m3
2021-07-03 23:00 14.74 ug/m3 104.19 ug/m3 18.29 ug/m3 25.84 C 64.7 % 1,002.75 mbar 0.82 m/s 236.51 Deg 0.26 ug/m3
2021-07-03 22:00 8.57 ug/m3 105.95 ug/m3 18.21 ug/m3 26.52 C 61.91 % 1,002.66 mbar 0.87 m/s 234.23 Deg 0.17 ug/m3
2021-07-03 21:00 19.68 ug/m3 89.38 ug/m3 17.44 ug/m3 27.5 C 58.87 % 1,001.90 mbar 0.98 m/s 206.35 Deg 0.49 ug/m3
2021-07-03 20:00 34.27 ug/m3 107.53 ug/m3 19.56 ug/m3 28.55 C 52.35 % 1,001.26 mbar 1.2 m/s 155.11 Deg 0.82 ug/m3
2021-07-03 19:00 16.31 ug/m3 128.51 ug/m3 11.58 ug/m3 29.83 C 46.61 % 1,001.08 mbar 1.8 m/s 172.65 Deg 0.78 ug/m3
2021-07-03 18:00 2.37 ug/m3 102.27 ug/m3 10.56 ug/m3 33.44 C 20.65 % 1,000.96 mbar 1.29 m/s 270.95 Deg 0.28 ug/m3
2021-07-03 17:00 1.91 ug/m3 104.64 ug/m3 11.58 ug/m3 34.42 C 20.14 % 1,001.31 mbar 1.13 m/s 327.5 Deg 0.27 ug/m3
2021-07-03 16:00 1.42 ug/m3 106.46 ug/m3 13.03 ug/m3 34.22 C 21.89 % 1,001.67 mbar 1.23 m/s 251.98 Deg 0.3 ug/m3
2021-07-03 15:00 2.72 ug/m3 116.74 ug/m3 18.38 ug/m3 34.35 C 22.89 % 1,002.07 mbar 1.41 m/s 264.01 Deg 0.44 ug/m3
2021-07-03 14:00 5.04 ug/m3 121.56 ug/m3 14.05 ug/m3 33.23 C 30.08 % 1,002.27 mbar 1.86 m/s 12.52 Deg 0.55 ug/m3
2021-07-03 13:00 6.5 ug/m3 113.92 ug/m3 12.77 ug/m3 33.62 C 28.7 % 1,002.20 mbar 2.03 m/s 104.44 Deg 0.95 ug/m3
2021-07-03 12:00 7.12 ug/m3 103.11 ug/m3 15.23 ug/m3 33.78 C 24.21 % 1,002.56 mbar 1.96 m/s 35.66 Deg 1.25 ug/m3
2021-07-03 11:00 5.95 ug/m3 101.07 ug/m3 12.86 ug/m3 32.9 C 25.98 % 1,002.96 mbar 2.24 m/s 24.82 Deg 1.97 ug/m3
2021-07-03 10:00 -1.25 ug/m3 98.09 ug/m3 12.52 ug/m3 32.33 C 26.46 % 1,002.89 mbar 2.37 m/s 27.2 Deg -2.74 ug/m3
2021-07-03 09:00 -2.06 ug/m3 90.8 ug/m3 13.62 ug/m3 31.79 C 32.62 % 1,002.66 mbar 1.53 m/s 257.11 Deg -9.5 ug/m3
2021-07-03 08:00 -2.06 ug/m3 80.15 ug/m3 35.36 ug/m3 31.05 C 36.04 % 1,002.48 mbar 1.19 m/s 256.46 Deg -9.5 ug/m3
2021-07-03 07:00 -2 ug/m3 36.56 ug/m3 31.28 ug/m3 29.67 C 38.63 % 1,002.16 mbar 0.55 m/s 334.91 Deg -9.5 ug/m3
2021-07-03 06:00 -2.08 ug/m3 26.22 ug/m3 18.04 ug/m3 26.17 C 50.78 % 1,001.98 mbar 0.43 m/s 320.85 Deg -9.5 ug/m3
2021-07-03 05:00 -2.01 ug/m3 42.92 ug/m3 13.2 ug/m3 24.78 C 58.4 % 1,001.81 mbar 0.62 m/s 285.97 Deg -9.5 ug/m3
2021-07-03 04:00 -2.02 ug/m3 69.67 ug/m3 9.8 ug/m3 25.36 C 61.44 % 1,001.62 mbar 0.57 m/s 236.97 Deg -9.5 ug/m3
2021-07-03 03:00 -1.99 ug/m3 71.62 ug/m3 8.61 ug/m3 25.47 C 64.64 % 1,001.61 mbar 0.72 m/s 289.34 Deg -9.5 ug/m3
2021-07-03 02:00 -2.04 ug/m3 82.65 ug/m3 8.95 ug/m3 26.09 C 61.82 % 1,001.65 mbar 1.01 m/s 325.6 Deg -9.5 ug/m3
2021-07-03 01:00 -2.05 ug/m3 85.16 ug/m3 11.75 ug/m3 26.38 C 60.17 % 1,001.71 mbar 0.99 m/s 320.23 Deg -9.5 ug/m3
2021-07-03 00:00 -2.07 ug/m3 89.64 ug/m3 23.98 ug/m3 26.15 C 68.85 % 1,002.08 mbar 1.25 m/s 305.54 Deg -9.5 ug/m3
2021-07-02 23:00 -2.01 ug/m3 93.27 ug/m3 9.46 ug/m3 26.46 C 67.83 % 1,002.30 mbar 1.71 m/s 313.35 Deg -9.5 ug/m3
2021-07-02 22:00 -2.05 ug/m3 96.07 ug/m3 11.5 ug/m3 26.43 C 73.79 % 1,002.37 mbar 1.32 m/s 304.7 Deg -9.5 ug/m3
2021-07-02 21:00 -2.02 ug/m3 96.25 ug/m3 13.11 ug/m3 26.85 C 77.25 % 1,001.98 mbar 0.94 m/s 322.7 Deg -9.5 ug/m3
2021-07-02 20:00 -2.07 ug/m3 94.54 ug/m3 13.11 ug/m3 27.76 C 68.52 % 1,001.62 mbar 1.2 m/s 296.94 Deg -9.5 ug/m3
2021-07-02 19:00 1.45 ug/m3 100.8 ug/m3 12.09 ug/m3 29.22 C 56.14 % 1,001.40 mbar 1.45 m/s 308.93 Deg -4.32 ug/m3
2021-07-02 18:00 4.65 ug/m3 101.25 ug/m3 13.54 ug/m3 31.23 C 44.49 % 1,001.12 mbar 1.46 m/s 301.62 Deg 0.34 ug/m3

It is to be noted that the data is provisional and subject to quality assurance procedures. For validated data kindly refer your request to contact.air@era.org.mt